<?xml version="1.0" encoding="UTF-8" standalone="no" ?>
<gpx xmlns="http://www.topografix.com/GPX/1/1" xmlns:xsi="http://www.w3.org/2001/XMLSchema-instance" xsi:schemaLocation="http://www.topografix.com/GPX/1/1 http://www.topografix.com/GPX/1/1/gpx.xsd" version="1.1" creator="VisuGPX - https://www.visugpx.com">
  <metadata>
    <name>Grand Ferrand par la Coche et les arches</name>
    <desc><![CDATA[Grand Ferrand par le Canyon de l'Adroit le tunnel de la Cloche et les rampes Interfairantes.
Voir sortie ABRG -]]></desc>
  </metadata>
  <trk>
    <name><![CDATA[SityTrail - Grand Ferrand par la Coche et les arches]]></name>
    <desc><![CDATA[Grand Ferrand par le Canyon de l'Adroit le tunnel de la Cloche et les rampes Interfairantes]]></desc>
    <extensions>
      <line xmlns="http://www.topografix.com/GPX/gpx_style/0/2">
        <color>0000FF</color>
        <width>4</width>
      </line>
    </extensions>
    <trkseg>
      <trkpt lat="44.69196" lon="5.86376">
        <ele>1395</ele>
        <time>2016-07-21T03:13:13.871Z</time>
      </trkpt>
      <trkpt lat="44.69224" lon="5.86374">
        <ele>1399</ele>
        <time>2016-07-21T03:13:15.234Z</time>
      </trkpt>
      <trkpt lat="44.69241" lon="5.86379">
        <ele>1395</ele>
        <time>2016-07-21T03:13:17.234Z</time>
      </trkpt>
      <trkpt lat="44.69251" lon="5.86379">
        <ele>1395</ele>
        <time>2016-07-21T03:13:19.234Z</time>
      </trkpt>
      <trkpt lat="44.69267" lon="5.8639">
        <ele>1395</ele>
        <time>2016-07-21T03:13:21.234Z</time>
      </trkpt>
      <trkpt lat="44.6928" lon="5.86402">
        <ele>1395</ele>
        <time>2016-07-21T03:13:23.234Z</time>
      </trkpt>
      <trkpt lat="44.69284" lon="5.86401">
        <ele>1395</ele>
        <time>2016-07-21T03:13:24.234Z</time>
      </trkpt>
      <trkpt lat="44.69294" lon="5.86409">
        <ele>1394</ele>
        <time>2016-07-21T03:13:30.234Z</time>
      </trkpt>
      <trkpt lat="44.69301" lon="5.86412">
        <ele>1394</ele>
        <time>2016-07-21T03:13:40.234Z</time>
      </trkpt>
      <trkpt lat="44.69307" lon="5.86408">
        <ele>1394</ele>
        <time>2016-07-21T03:13:47.234Z</time>
      </trkpt>
      <trkpt lat="44.69328" lon="5.86372">
        <ele>1400</ele>
        <time>2016-07-21T03:14:14.234Z</time>
      </trkpt>
      <trkpt lat="44.69333" lon="5.86367">
        <ele>1400</ele>
        <time>2016-07-21T03:14:20.234Z</time>
      </trkpt>
      <trkpt lat="44.6934" lon="5.86365">
        <ele>1400</ele>
        <time>2016-07-21T03:14:27.234Z</time>
      </trkpt>
      <trkpt lat="44.69351" lon="5.86368">
        <ele>1396</ele>
        <time>2016-07-21T03:14:38.234Z</time>
      </trkpt>
      <trkpt lat="44.6937" lon="5.86368">
        <ele>1396</ele>
        <time>2016-07-21T03:14:53.234Z</time>
      </trkpt>
      <trkpt lat="44.69384" lon="5.86364">
        <ele>1396</ele>
        <time>2016-07-21T03:15:07.234Z</time>
      </trkpt>
      <trkpt lat="44.69429" lon="5.86339">
        <ele>1397</ele>
        <time>2016-07-21T03:15:48.234Z</time>
      </trkpt>
      <trkpt lat="44.69459" lon="5.86333">
        <ele>1409</ele>
        <time>2016-07-21T03:16:13.234Z</time>
      </trkpt>
      <trkpt lat="44.69487" lon="5.86322">
        <ele>1412</ele>
        <time>2016-07-21T03:16:39.234Z</time>
      </trkpt>
      <trkpt lat="44.69498" lon="5.86324">
        <ele>1412</ele>
        <time>2016-07-21T03:16:47.234Z</time>
      </trkpt>
      <trkpt lat="44.69516" lon="5.86333">
        <ele>1414</ele>
        <time>2016-07-21T03:17:09.234Z</time>
      </trkpt>
      <trkpt lat="44.69535" lon="5.86326">
        <ele>1414</ele>
        <time>2016-07-21T03:17:29.234Z</time>
      </trkpt>
      <trkpt lat="44.69596" lon="5.86333">
        <ele>1420</ele>
        <time>2016-07-21T03:18:28.234Z</time>
      </trkpt>
      <trkpt lat="44.69614" lon="5.8634">
        <ele>1422</ele>
        <time>2016-07-21T03:18:47.234Z</time>
      </trkpt>
      <trkpt lat="44.69622" lon="5.86336">
        <ele>1422</ele>
        <time>2016-07-21T03:18:55.234Z</time>
      </trkpt>
      <trkpt lat="44.69651" lon="5.86333">
        <ele>1426</ele>
        <time>2016-07-21T03:19:25.234Z</time>
      </trkpt>
      <trkpt lat="44.69664" lon="5.86329">
        <ele>1429</ele>
        <time>2016-07-21T03:19:40.234Z</time>
      </trkpt>
      <trkpt lat="44.69679" lon="5.86327">
        <ele>1429</ele>
        <time>2016-07-21T03:19:55.234Z</time>
      </trkpt>
      <trkpt lat="44.69692" lon="5.86333">
        <ele>1432</ele>
        <time>2016-07-21T03:20:10.234Z</time>
      </trkpt>
      <trkpt lat="44.69718" lon="5.86336">
        <ele>1437</ele>
        <time>2016-07-21T03:20:36.234Z</time>
      </trkpt>
      <trkpt lat="44.6976" lon="5.86347">
        <ele>1436</ele>
        <time>2016-07-21T03:21:17.234Z</time>
      </trkpt>
      <trkpt lat="44.69767" lon="5.86351">
        <ele>1440</ele>
        <time>2016-07-21T03:21:26.234Z</time>
      </trkpt>
      <trkpt lat="44.69778" lon="5.8635">
        <ele>1440</ele>
        <time>2016-07-21T03:21:35.234Z</time>
      </trkpt>
      <trkpt lat="44.69873" lon="5.86359">
        <ele>1451</ele>
        <time>2016-07-21T03:22:56.234Z</time>
      </trkpt>
      <trkpt lat="44.69883" lon="5.86363">
        <ele>1453</ele>
        <time>2016-07-21T03:23:07.234Z</time>
      </trkpt>
      <trkpt lat="44.69886" lon="5.86367">
        <ele>1453</ele>
        <time>2016-07-21T03:23:11.234Z</time>
      </trkpt>
      <trkpt lat="44.69916" lon="5.86385">
        <ele>1452</ele>
        <time>2016-07-21T03:23:36.234Z</time>
      </trkpt>
      <trkpt lat="44.69965" lon="5.86429">
        <ele>1449</ele>
        <time>2016-07-21T03:24:20.234Z</time>
      </trkpt>
      <trkpt lat="44.69978" lon="5.86438">
        <ele>1448</ele>
        <time>2016-07-21T03:24:32.234Z</time>
      </trkpt>
      <trkpt lat="44.69993" lon="5.86444">
        <ele>1449</ele>
        <time>2016-07-21T03:24:43.234Z</time>
      </trkpt>
      <trkpt lat="44.70011" lon="5.86447">
        <ele>1449</ele>
        <time>2016-07-21T03:24:55.234Z</time>
      </trkpt>
      <trkpt lat="44.70075" lon="5.8647">
        <ele>1457</ele>
        <time>2016-07-21T03:25:45.234Z</time>
      </trkpt>
      <trkpt lat="44.70108" lon="5.86468">
        <ele>1453</ele>
        <time>2016-07-21T03:26:10.234Z</time>
      </trkpt>
      <trkpt lat="44.70124" lon="5.8647">
        <ele>1453</ele>
        <time>2016-07-21T03:26:24.234Z</time>
      </trkpt>
      <trkpt lat="44.70134" lon="5.86474">
        <ele>1452</ele>
        <time>2016-07-21T03:26:34.234Z</time>
      </trkpt>
      <trkpt lat="44.70139" lon="5.86474">
        <ele>1452</ele>
        <time>2016-07-21T03:26:37.234Z</time>
      </trkpt>
      <trkpt lat="44.70143" lon="5.86477">
        <ele>1452</ele>
        <time>2016-07-21T03:26:44.234Z</time>
      </trkpt>
      <trkpt lat="44.70169" lon="5.86483">
        <ele>1455</ele>
        <time>2016-07-21T03:27:04.234Z</time>
      </trkpt>
      <trkpt lat="44.70184" lon="5.86494">
        <ele>1454</ele>
        <time>2016-07-21T03:27:20.234Z</time>
      </trkpt>
      <trkpt lat="44.70205" lon="5.86519">
        <ele>1452</ele>
        <time>2016-07-21T03:27:42.234Z</time>
      </trkpt>
      <trkpt lat="44.7026" lon="5.86523">
        <ele>1459</ele>
        <time>2016-07-21T03:28:28.234Z</time>
      </trkpt>
      <trkpt lat="44.70278" lon="5.86523">
        <ele>1460</ele>
        <time>2016-07-21T03:28:43.234Z</time>
      </trkpt>
      <trkpt lat="44.70296" lon="5.86526">
        <ele>1460</ele>
        <time>2016-07-21T03:28:57.234Z</time>
      </trkpt>
      <trkpt lat="44.70318" lon="5.86534">
        <ele>1460</ele>
        <time>2016-07-21T03:29:16.234Z</time>
      </trkpt>
      <trkpt lat="44.70355" lon="5.86531">
        <ele>1462</ele>
        <time>2016-07-21T03:29:45.234Z</time>
      </trkpt>
      <trkpt lat="44.70368" lon="5.86525">
        <ele>1462</ele>
        <time>2016-07-21T03:30:00.234Z</time>
      </trkpt>
      <trkpt lat="44.70385" lon="5.86521">
        <ele>1464</ele>
        <time>2016-07-21T03:30:11.234Z</time>
      </trkpt>
      <trkpt lat="44.70402" lon="5.86521">
        <ele>1464</ele>
        <time>2016-07-21T03:30:24.234Z</time>
      </trkpt>
      <trkpt lat="44.70413" lon="5.86524">
        <ele>1466</ele>
        <time>2016-07-21T03:30:31.234Z</time>
      </trkpt>
      <trkpt lat="44.70422" lon="5.86524">
        <ele>1466</ele>
        <time>2016-07-21T03:30:37.234Z</time>
      </trkpt>
      <trkpt lat="44.7043" lon="5.86518">
        <ele>1466</ele>
        <time>2016-07-21T03:30:44.234Z</time>
      </trkpt>
      <trkpt lat="44.70456" lon="5.86475">
        <ele>1474</ele>
        <time>2016-07-21T03:31:13.234Z</time>
      </trkpt>
      <trkpt lat="44.70468" lon="5.8647">
        <ele>1469</ele>
        <time>2016-07-21T03:31:23.234Z</time>
      </trkpt>
      <trkpt lat="44.7047" lon="5.86467">
        <ele>1469</ele>
        <time>2016-07-21T03:31:25.234Z</time>
      </trkpt>
      <trkpt lat="44.70504" lon="5.86457">
        <ele>1468</ele>
        <time>2016-07-21T03:31:53.234Z</time>
      </trkpt>
      <trkpt lat="44.70513" lon="5.86452">
        <ele>1468</ele>
        <time>2016-07-21T03:32:00.234Z</time>
      </trkpt>
      <trkpt lat="44.70527" lon="5.86436">
        <ele>1460</ele>
        <time>2016-07-21T03:32:13.234Z</time>
      </trkpt>
      <trkpt lat="44.70537" lon="5.86415">
        <ele>1465</ele>
        <time>2016-07-21T03:32:26.234Z</time>
      </trkpt>
      <trkpt lat="44.70544" lon="5.86409">
        <ele>1456</ele>
        <time>2016-07-21T03:32:32.234Z</time>
      </trkpt>
      <trkpt lat="44.70569" lon="5.86379">
        <ele>1463</ele>
        <time>2016-07-21T03:32:59.234Z</time>
      </trkpt>
      <trkpt lat="44.70607" lon="5.86367">
        <ele>1462</ele>
        <time>2016-07-21T03:33:34.234Z</time>
      </trkpt>
      <trkpt lat="44.70635" lon="5.86354">
        <ele>1455</ele>
        <time>2016-07-21T03:33:58.234Z</time>
      </trkpt>
      <trkpt lat="44.70647" lon="5.86338">
        <ele>1460</ele>
        <time>2016-07-21T03:34:10.234Z</time>
      </trkpt>
      <trkpt lat="44.70653" lon="5.86317">
        <ele>1454</ele>
        <time>2016-07-21T03:34:23.234Z</time>
      </trkpt>
      <trkpt lat="44.70657" lon="5.86291">
        <ele>1458</ele>
        <time>2016-07-21T03:34:35.234Z</time>
      </trkpt>
      <trkpt lat="44.70665" lon="5.8628">
        <ele>1458</ele>
        <time>2016-07-21T03:34:44.234Z</time>
      </trkpt>
      <trkpt lat="44.70675" lon="5.86277">
        <ele>1458</ele>
        <time>2016-07-21T03:34:50.234Z</time>
      </trkpt>
      <trkpt lat="44.70692" lon="5.8628">
        <ele>1455</ele>
        <time>2016-07-21T03:35:03.234Z</time>
      </trkpt>
      <trkpt lat="44.70711" lon="5.86286">
        <ele>1452</ele>
        <time>2016-07-21T03:35:16.234Z</time>
      </trkpt>
      <trkpt lat="44.70723" lon="5.86287">
        <ele>1452</ele>
        <time>2016-07-21T03:35:28.234Z</time>
      </trkpt>
      <trkpt lat="44.70729" lon="5.86281">
        <ele>1452</ele>
        <time>2016-07-21T03:35:35.234Z</time>
      </trkpt>
      <trkpt lat="44.70731" lon="5.8626">
        <ele>1455</ele>
        <time>2016-07-21T03:35:48.234Z</time>
      </trkpt>
      <trkpt lat="44.70726" lon="5.86236">
        <ele>1458</ele>
        <time>2016-07-21T03:36:02.234Z</time>
      </trkpt>
      <trkpt lat="44.70726" lon="5.86216">
        <ele>1458</ele>
        <time>2016-07-21T03:36:14.234Z</time>
      </trkpt>
      <trkpt lat="44.70729" lon="5.86206">
        <ele>1463</ele>
        <time>2016-07-21T03:36:20.234Z</time>
      </trkpt>
      <trkpt lat="44.70761" lon="5.8619">
        <ele>1458</ele>
        <time>2016-07-21T03:36:44.234Z</time>
      </trkpt>
      <trkpt lat="44.70777" lon="5.86176">
        <ele>1456</ele>
        <time>2016-07-21T03:36:58.234Z</time>
      </trkpt>
      <trkpt lat="44.70793" lon="5.86167">
        <ele>1453</ele>
        <time>2016-07-21T03:37:15.234Z</time>
      </trkpt>
      <trkpt lat="44.70828" lon="5.86163">
        <ele>1452</ele>
        <time>2016-07-21T03:37:45.234Z</time>
      </trkpt>
      <trkpt lat="44.7083" lon="5.8616">
        <ele>1452</ele>
        <time>2016-07-21T03:37:48.234Z</time>
      </trkpt>
      <trkpt lat="44.70836" lon="5.86157">
        <ele>1452</ele>
        <time>2016-07-21T03:37:56.234Z</time>
      </trkpt>
      <trkpt lat="44.70844" lon="5.8614">
        <ele>1453</ele>
        <time>2016-07-21T03:38:08.234Z</time>
      </trkpt>
      <trkpt lat="44.70866" lon="5.86119">
        <ele>1454</ele>
        <time>2016-07-21T03:38:34.234Z</time>
      </trkpt>
      <trkpt lat="44.70873" lon="5.86115">
        <ele>1454</ele>
        <time>2016-07-21T03:38:40.234Z</time>
      </trkpt>
      <trkpt lat="44.70881" lon="5.86114">
        <ele>1455</ele>
        <time>2016-07-21T03:38:46.234Z</time>
      </trkpt>
      <trkpt lat="44.70889" lon="5.86104">
        <ele>1455</ele>
        <time>2016-07-21T03:38:56.234Z</time>
      </trkpt>
      <trkpt lat="44.70891" lon="5.86084">
        <ele>1458</ele>
        <time>2016-07-21T03:39:11.234Z</time>
      </trkpt>
      <trkpt lat="44.7089" lon="5.86043">
        <ele>1462</ele>
        <time>2016-07-21T03:39:39.234Z</time>
      </trkpt>
      <trkpt lat="44.70893" lon="5.86024">
        <ele>1465</ele>
        <time>2016-07-21T03:39:51.234Z</time>
      </trkpt>
      <trkpt lat="44.70886" lon="5.85978">
        <ele>1469</ele>
        <time>2016-07-21T03:40:23.234Z</time>
      </trkpt>
      <trkpt lat="44.70892" lon="5.8596">
        <ele>1469</ele>
        <time>2016-07-21T03:40:40.234Z</time>
      </trkpt>
      <trkpt lat="44.70903" lon="5.85937">
        <ele>1470</ele>
        <time>2016-07-21T03:41:01.234Z</time>
      </trkpt>
      <trkpt lat="44.70912" lon="5.85904">
        <ele>1471</ele>
        <time>2016-07-21T03:41:24.234Z</time>
      </trkpt>
      <trkpt lat="44.70912" lon="5.85876">
        <ele>1473</ele>
        <time>2016-07-21T03:41:45.234Z</time>
      </trkpt>
      <trkpt lat="44.70907" lon="5.85851">
        <ele>1476</ele>
        <time>2016-07-21T03:42:05.234Z</time>
      </trkpt>
      <trkpt lat="44.70911" lon="5.85849">
        <ele>1476</ele>
        <time>2016-07-21T03:42:08.234Z</time>
      </trkpt>
      <trkpt lat="44.70923" lon="5.85834">
        <ele>1481</ele>
        <time>2016-07-21T03:42:24.234Z</time>
      </trkpt>
      <trkpt lat="44.70931" lon="5.85832">
        <ele>1475</ele>
        <time>2016-07-21T03:42:36.234Z</time>
      </trkpt>
      <trkpt lat="44.70945" lon="5.85824">
        <ele>1475</ele>
        <time>2016-07-21T03:42:49.234Z</time>
      </trkpt>
      <trkpt lat="44.70965" lon="5.85802">
        <ele>1469</ele>
        <time>2016-07-21T03:43:16.234Z</time>
      </trkpt>
      <trkpt lat="44.70979" lon="5.85724">
        <ele>1467</ele>
        <time>2016-07-21T03:44:32.234Z</time>
      </trkpt>
      <trkpt lat="44.70973" lon="5.85705">
        <ele>1466</ele>
        <time>2016-07-21T03:44:53.234Z</time>
      </trkpt>
      <trkpt lat="44.70973" lon="5.85688">
        <ele>1466</ele>
        <time>2016-07-21T03:45:09.234Z</time>
      </trkpt>
      <trkpt lat="44.70971" lon="5.85682">
        <ele>1466</ele>
        <time>2016-07-21T03:45:17.234Z</time>
      </trkpt>
      <trkpt lat="44.70965" lon="5.85663">
        <ele>1470</ele>
        <time>2016-07-21T03:45:35.234Z</time>
      </trkpt>
      <trkpt lat="44.70969" lon="5.85637">
        <ele>1477</ele>
        <time>2016-07-21T03:46:22.234Z</time>
      </trkpt>
      <trkpt lat="44.70962" lon="5.85617">
        <ele>1477</ele>
        <time>2016-07-21T03:46:48.234Z</time>
      </trkpt>
      <trkpt lat="44.70947" lon="5.8559">
        <ele>1476</ele>
        <time>2016-07-21T03:47:22.234Z</time>
      </trkpt>
      <trkpt lat="44.70943" lon="5.85584">
        <ele>1476</ele>
        <time>2016-07-21T03:47:33.234Z</time>
      </trkpt>
      <trkpt lat="44.70934" lon="5.85576">
        <ele>1476</ele>
        <time>2016-07-21T03:47:46.234Z</time>
      </trkpt>
      <trkpt lat="44.70933" lon="5.85573">
        <ele>1476</ele>
        <time>2016-07-21T03:47:50.234Z</time>
      </trkpt>
      <trkpt lat="44.70912" lon="5.85524">
        <ele>1485</ele>
        <time>2016-07-21T03:49:26.234Z</time>
      </trkpt>
      <trkpt lat="44.70909" lon="5.85516">
        <ele>1485</ele>
        <time>2016-07-21T03:49:39.234Z</time>
      </trkpt>
      <trkpt lat="44.70909" lon="5.8548">
        <ele>1493</ele>
        <time>2016-07-21T03:50:17.234Z</time>
      </trkpt>
      <trkpt lat="44.70901" lon="5.85457">
        <ele>1489</ele>
        <time>2016-07-21T03:50:34.234Z</time>
      </trkpt>
      <trkpt lat="44.70886" lon="5.8542">
        <ele>1491</ele>
        <time>2016-07-21T03:51:11.234Z</time>
      </trkpt>
      <trkpt lat="44.70886" lon="5.85398">
        <ele>1495</ele>
        <time>2016-07-21T03:51:27.234Z</time>
      </trkpt>
      <trkpt lat="44.70895" lon="5.85377">
        <ele>1495</ele>
        <time>2016-07-21T03:51:46.234Z</time>
      </trkpt>
      <trkpt lat="44.70894" lon="5.85373">
        <ele>1499</ele>
        <time>2016-07-21T03:51:50.234Z</time>
      </trkpt>
      <trkpt lat="44.70887" lon="5.85365">
        <ele>1499</ele>
        <time>2016-07-21T03:52:01.234Z</time>
      </trkpt>
      <trkpt lat="44.70881" lon="5.8535">
        <ele>1499</ele>
        <time>2016-07-21T03:52:18.234Z</time>
      </trkpt>
      <trkpt lat="44.70888" lon="5.85319">
        <ele>1507</ele>
        <time>2016-07-21T03:52:49.234Z</time>
      </trkpt>
      <trkpt lat="44.70891" lon="5.85318">
        <ele>1507</ele>
        <time>2016-07-21T03:52:57.234Z</time>
      </trkpt>
      <trkpt lat="44.709" lon="5.85303">
        <ele>1507</ele>
        <time>2016-07-21T03:53:17.234Z</time>
      </trkpt>
      <trkpt lat="44.70902" lon="5.85289">
        <ele>1516</ele>
        <time>2016-07-21T03:53:43.234Z</time>
      </trkpt>
      <trkpt lat="44.70907" lon="5.85278">
        <ele>1519</ele>
        <time>2016-07-21T03:53:57.234Z</time>
      </trkpt>
      <trkpt lat="44.70911" lon="5.85259">
        <ele>1531</ele>
        <time>2016-07-21T03:54:26.234Z</time>
      </trkpt>
      <trkpt lat="44.70912" lon="5.85242">
        <ele>1531</ele>
        <time>2016-07-21T03:54:47.234Z</time>
      </trkpt>
      <trkpt lat="44.70914" lon="5.85239">
        <ele>1531</ele>
        <time>2016-07-21T03:54:58.234Z</time>
      </trkpt>
      <trkpt lat="44.70915" lon="5.85214">
        <ele>1544</ele>
        <time>2016-07-21T03:55:30.234Z</time>
      </trkpt>
      <trkpt lat="44.70913" lon="5.85208">
        <ele>1554</ele>
        <time>2016-07-21T03:55:39.234Z</time>
      </trkpt>
      <trkpt lat="44.7091" lon="5.85189">
        <ele>1554</ele>
        <time>2016-07-21T03:56:09.234Z</time>
      </trkpt>
      <trkpt lat="44.7091" lon="5.85182">
        <ele>1554</ele>
        <time>2016-07-21T03:56:19.234Z</time>
      </trkpt>
      <trkpt lat="44.70908" lon="5.85167">
        <ele>1566</ele>
        <time>2016-07-21T03:56:49.234Z</time>
      </trkpt>
      <trkpt lat="44.70909" lon="5.85133">
        <ele>1578</ele>
        <time>2016-07-21T03:57:30.234Z</time>
      </trkpt>
      <trkpt lat="44.70912" lon="5.85117">
        <ele>1588</ele>
        <time>2016-07-21T03:57:51.234Z</time>
      </trkpt>
      <trkpt lat="44.70912" lon="5.851">
        <ele>1588</ele>
        <time>2016-07-21T03:58:09.234Z</time>
      </trkpt>
      <trkpt lat="44.70915" lon="5.8508">
        <ele>1593</ele>
        <time>2016-07-21T03:58:37.234Z</time>
      </trkpt>
      <trkpt lat="44.70921" lon="5.85036">
        <ele>1597</ele>
        <time>2016-07-21T03:59:26.234Z</time>
      </trkpt>
      <trkpt lat="44.70922" lon="5.8502">
        <ele>1597</ele>
        <time>2016-07-21T03:59:39.234Z</time>
      </trkpt>
      <trkpt lat="44.7092" lon="5.85009">
        <ele>1596</ele>
        <time>2016-07-21T03:59:46.234Z</time>
      </trkpt>
      <trkpt lat="44.70922" lon="5.85003">
        <ele>1596</ele>
        <time>2016-07-21T03:59:52.234Z</time>
      </trkpt>
      <trkpt lat="44.7093" lon="5.8498">
        <ele>1600</ele>
        <time>2016-07-21T04:00:16.234Z</time>
      </trkpt>
      <trkpt lat="44.7093" lon="5.8497">
        <ele>1600</ele>
        <time>2016-07-21T04:00:24.234Z</time>
      </trkpt>
      <trkpt lat="44.70933" lon="5.84958">
        <ele>1606</ele>
        <time>2016-07-21T04:00:43.234Z</time>
      </trkpt>
      <trkpt lat="44.70927" lon="5.84933">
        <ele>1602</ele>
        <time>2016-07-21T04:01:09.234Z</time>
      </trkpt>
      <trkpt lat="44.70923" lon="5.84916">
        <ele>1607</ele>
        <time>2016-07-21T04:01:36.234Z</time>
      </trkpt>
      <trkpt lat="44.70923" lon="5.84893">
        <ele>1605</ele>
        <time>2016-07-21T04:02:10.234Z</time>
      </trkpt>
      <trkpt lat="44.70922" lon="5.84885">
        <ele>1605</ele>
        <time>2016-07-21T04:02:21.234Z</time>
      </trkpt>
      <trkpt lat="44.70925" lon="5.84878">
        <ele>1605</ele>
        <time>2016-07-21T04:02:28.234Z</time>
      </trkpt>
      <trkpt lat="44.70927" lon="5.84846">
        <ele>1601</ele>
        <time>2016-07-21T04:03:17.234Z</time>
      </trkpt>
      <trkpt lat="44.70926" lon="5.84824">
        <ele>1601</ele>
        <time>2016-07-21T04:03:58.234Z</time>
      </trkpt>
      <trkpt lat="44.70919" lon="5.8479">
        <ele>1606</ele>
        <time>2016-07-21T04:05:08.234Z</time>
      </trkpt>
      <trkpt lat="44.70918" lon="5.84786">
        <ele>1606</ele>
        <time>2016-07-21T04:05:12.234Z</time>
      </trkpt>
      <trkpt lat="44.70926" lon="5.84756">
        <ele>1614</ele>
        <time>2016-07-21T04:05:43.234Z</time>
      </trkpt>
      <trkpt lat="44.70925" lon="5.84746">
        <ele>1614</ele>
        <time>2016-07-21T04:06:06.234Z</time>
      </trkpt>
      <trkpt lat="44.70924" lon="5.84729">
        <ele>1619</ele>
        <time>2016-07-21T04:06:29.234Z</time>
      </trkpt>
      <trkpt lat="44.70925" lon="5.84718">
        <ele>1619</ele>
        <time>2016-07-21T04:06:43.234Z</time>
      </trkpt>
      <trkpt lat="44.70923" lon="5.84711">
        <ele>1619</ele>
        <time>2016-07-21T04:06:50.234Z</time>
      </trkpt>
      <trkpt lat="44.7093" lon="5.84698">
        <ele>1627</ele>
        <time>2016-07-21T04:07:06.234Z</time>
      </trkpt>
      <trkpt lat="44.70929" lon="5.84695">
        <ele>1627</ele>
        <time>2016-07-21T04:07:10.234Z</time>
      </trkpt>
      <trkpt lat="44.70932" lon="5.8469">
        <ele>1635</ele>
        <time>2016-07-21T04:07:15.234Z</time>
      </trkpt>
      <trkpt lat="44.70937" lon="5.84688">
        <ele>1635</ele>
        <time>2016-07-21T04:07:19.234Z</time>
      </trkpt>
      <trkpt lat="44.70942" lon="5.84681">
        <ele>1635</ele>
        <time>2016-07-21T04:07:25.234Z</time>
      </trkpt>
      <trkpt lat="44.70943" lon="5.84666">
        <ele>1640</ele>
        <time>2016-07-21T04:07:39.234Z</time>
      </trkpt>
      <trkpt lat="44.70937" lon="5.84665">
        <ele>1640</ele>
        <time>2016-07-21T04:07:47.234Z</time>
      </trkpt>
      <trkpt lat="44.70935" lon="5.84662">
        <ele>1640</ele>
        <time>2016-07-21T04:07:52.234Z</time>
      </trkpt>
      <trkpt lat="44.70918" lon="5.84654">
        <ele>1629</ele>
        <time>2016-07-21T04:08:09.234Z</time>
      </trkpt>
      <trkpt lat="44.70915" lon="5.84647">
        <ele>1636</ele>
        <time>2016-07-21T04:08:15.234Z</time>
      </trkpt>
      <trkpt lat="44.70916" lon="5.84638">
        <ele>1636</ele>
        <time>2016-07-21T04:08:28.234Z</time>
      </trkpt>
      <trkpt lat="44.70918" lon="5.84624">
        <ele>1645</ele>
        <time>2016-07-21T04:08:48.234Z</time>
      </trkpt>
      <trkpt lat="44.70922" lon="5.84602">
        <ele>1645</ele>
        <time>2016-07-21T04:09:28.234Z</time>
      </trkpt>
      <trkpt lat="44.70915" lon="5.84575">
        <ele>1646</ele>
        <time>2016-07-21T04:11:08.234Z</time>
      </trkpt>
      <trkpt lat="44.70914" lon="5.84572">
        <ele>1646</ele>
        <time>2016-07-21T04:11:26.234Z</time>
      </trkpt>
      <trkpt lat="44.70919" lon="5.84567">
        <ele>1651</ele>
        <time>2016-07-21T04:11:38.234Z</time>
      </trkpt>
      <trkpt lat="44.7092" lon="5.84559">
        <ele>1651</ele>
        <time>2016-07-21T04:12:03.234Z</time>
      </trkpt>
      <trkpt lat="44.70921" lon="5.84541">
        <ele>1654</ele>
        <time>2016-07-21T04:12:57.234Z</time>
      </trkpt>
      <trkpt lat="44.70918" lon="5.84534">
        <ele>1654</ele>
        <time>2016-07-21T04:13:07.234Z</time>
      </trkpt>
      <trkpt lat="44.70921" lon="5.84529">
        <ele>1654</ele>
        <time>2016-07-21T04:13:19.234Z</time>
      </trkpt>
      <trkpt lat="44.70922" lon="5.84521">
        <ele>1654</ele>
        <time>2016-07-21T04:13:39.234Z</time>
      </trkpt>
      <trkpt lat="44.70919" lon="5.84502">
        <ele>1659</ele>
        <time>2016-07-21T04:14:08.234Z</time>
      </trkpt>
      <trkpt lat="44.70921" lon="5.84497">
        <ele>1659</ele>
        <time>2016-07-21T04:14:16.234Z</time>
      </trkpt>
      <trkpt lat="44.70921" lon="5.84487">
        <ele>1659</ele>
        <time>2016-07-21T04:14:40.234Z</time>
      </trkpt>
      <trkpt lat="44.70914" lon="5.84454">
        <ele>1665</ele>
        <time>2016-07-21T04:15:32.234Z</time>
      </trkpt>
      <trkpt lat="44.70918" lon="5.84448">
        <ele>1665</ele>
        <time>2016-07-21T04:15:46.234Z</time>
      </trkpt>
      <trkpt lat="44.70915" lon="5.84419">
        <ele>1668</ele>
        <time>2016-07-21T04:16:17.234Z</time>
      </trkpt>
      <trkpt lat="44.70913" lon="5.84389">
        <ele>1669</ele>
        <time>2016-07-21T04:16:49.234Z</time>
      </trkpt>
      <trkpt lat="44.70918" lon="5.84358">
        <ele>1669</ele>
        <time>2016-07-21T04:17:21.234Z</time>
      </trkpt>
      <trkpt lat="44.70918" lon="5.84324">
        <ele>1665</ele>
        <time>2016-07-21T04:18:01.234Z</time>
      </trkpt>
      <trkpt lat="44.70916" lon="5.84312">
        <ele>1665</ele>
        <time>2016-07-21T04:18:18.234Z</time>
      </trkpt>
      <trkpt lat="44.70912" lon="5.84305">
        <ele>1665</ele>
        <time>2016-07-21T04:18:32.234Z</time>
      </trkpt>
      <trkpt lat="44.70905" lon="5.84276">
        <ele>1665</ele>
        <time>2016-07-21T04:19:20.234Z</time>
      </trkpt>
      <trkpt lat="44.70901" lon="5.84263">
        <ele>1659</ele>
        <time>2016-07-21T04:19:38.234Z</time>
      </trkpt>
      <trkpt lat="44.70901" lon="5.84227">
        <ele>1661</ele>
        <time>2016-07-21T04:20:26.234Z</time>
      </trkpt>
      <trkpt lat="44.70901" lon="5.84206">
        <ele>1666</ele>
        <time>2016-07-21T04:20:53.234Z</time>
      </trkpt>
      <trkpt lat="44.70898" lon="5.84168">
        <ele>1677</ele>
        <time>2016-07-21T04:22:03.234Z</time>
      </trkpt>
      <trkpt lat="44.70895" lon="5.84162">
        <ele>1677</ele>
        <time>2016-07-21T04:22:16.234Z</time>
      </trkpt>
      <trkpt lat="44.70887" lon="5.84129">
        <ele>1684</ele>
        <time>2016-07-21T04:22:56.234Z</time>
      </trkpt>
      <trkpt lat="44.70886" lon="5.84113">
        <ele>1690</ele>
        <time>2016-07-21T04:23:15.234Z</time>
      </trkpt>
      <trkpt lat="44.70888" lon="5.84081">
        <ele>1693</ele>
        <time>2016-07-21T04:23:53.234Z</time>
      </trkpt>
      <trkpt lat="44.70891" lon="5.84061">
        <ele>1695</ele>
        <time>2016-07-21T04:24:17.234Z</time>
      </trkpt>
      <trkpt lat="44.70893" lon="5.84045">
        <ele>1695</ele>
        <time>2016-07-21T04:24:33.234Z</time>
      </trkpt>
      <trkpt lat="44.70888" lon="5.84032">
        <ele>1699</ele>
        <time>2016-07-21T04:24:49.234Z</time>
      </trkpt>
      <trkpt lat="44.70893" lon="5.84005">
        <ele>1701</ele>
        <time>2016-07-21T04:25:20.234Z</time>
      </trkpt>
      <trkpt lat="44.70891" lon="5.83993">
        <ele>1701</ele>
        <time>2016-07-21T04:25:40.234Z</time>
      </trkpt>
      <trkpt lat="44.70894" lon="5.83977">
        <ele>1704</ele>
        <time>2016-07-21T04:25:56.234Z</time>
      </trkpt>
      <trkpt lat="44.70888" lon="5.8394">
        <ele>1709</ele>
        <time>2016-07-21T04:26:47.234Z</time>
      </trkpt>
      <trkpt lat="44.70891" lon="5.83934">
        <ele>1709</ele>
        <time>2016-07-21T04:26:57.234Z</time>
      </trkpt>
      <trkpt lat="44.70891" lon="5.83911">
        <ele>1716</ele>
        <time>2016-07-21T04:27:19.234Z</time>
      </trkpt>
      <trkpt lat="44.70886" lon="5.83889">
        <ele>1719</ele>
        <time>2016-07-21T04:27:43.234Z</time>
      </trkpt>
      <trkpt lat="44.7089" lon="5.83874">
        <ele>1726</ele>
        <time>2016-07-21T04:27:58.234Z</time>
      </trkpt>
      <trkpt lat="44.70888" lon="5.83854">
        <ele>1726</ele>
        <time>2016-07-21T04:28:13.234Z</time>
      </trkpt>
      <trkpt lat="44.70883" lon="5.83838">
        <ele>1730</ele>
        <time>2016-07-21T04:28:31.234Z</time>
      </trkpt>
      <trkpt lat="44.70878" lon="5.83831">
        <ele>1730</ele>
        <time>2016-07-21T04:28:40.234Z</time>
      </trkpt>
      <trkpt lat="44.70875" lon="5.83804">
        <ele>1730</ele>
        <time>2016-07-21T04:29:14.234Z</time>
      </trkpt>
      <trkpt lat="44.70868" lon="5.8379">
        <ele>1731</ele>
        <time>2016-07-21T04:29:29.234Z</time>
      </trkpt>
      <trkpt lat="44.70866" lon="5.83779">
        <ele>1731</ele>
        <time>2016-07-21T04:29:42.234Z</time>
      </trkpt>
      <trkpt lat="44.70863" lon="5.83776">
        <ele>1731</ele>
        <time>2016-07-21T04:29:46.234Z</time>
      </trkpt>
      <trkpt lat="44.70866" lon="5.83761">
        <ele>1736</ele>
        <time>2016-07-21T04:30:02.234Z</time>
      </trkpt>
      <trkpt lat="44.70872" lon="5.83742">
        <ele>1736</ele>
        <time>2016-07-21T04:30:22.234Z</time>
      </trkpt>
      <trkpt lat="44.70872" lon="5.83719">
        <ele>1742</ele>
        <time>2016-07-21T04:30:47.234Z</time>
      </trkpt>
      <trkpt lat="44.70873" lon="5.83712">
        <ele>1742</ele>
        <time>2016-07-21T04:30:56.234Z</time>
      </trkpt>
      <trkpt lat="44.70879" lon="5.83695">
        <ele>1747</ele>
        <time>2016-07-21T04:31:18.234Z</time>
      </trkpt>
      <trkpt lat="44.7088" lon="5.83686">
        <ele>1747</ele>
        <time>2016-07-21T04:31:25.234Z</time>
      </trkpt>
      <trkpt lat="44.70883" lon="5.83682">
        <ele>1747</ele>
        <time>2016-07-21T04:31:34.234Z</time>
      </trkpt>
      <trkpt lat="44.70885" lon="5.83658">
        <ele>1748</ele>
        <time>2016-07-21T04:32:14.234Z</time>
      </trkpt>
      <trkpt lat="44.70885" lon="5.83644">
        <ele>1749</ele>
        <time>2016-07-21T04:32:45.234Z</time>
      </trkpt>
      <trkpt lat="44.70891" lon="5.83624">
        <ele>1756</ele>
        <time>2016-07-21T04:33:22.234Z</time>
      </trkpt>
      <trkpt lat="44.70903" lon="5.83606">
        <ele>1756</ele>
        <time>2016-07-21T04:34:00.234Z</time>
      </trkpt>
      <trkpt lat="44.70905" lon="5.83591">
        <ele>1764</ele>
        <time>2016-07-21T04:34:21.234Z</time>
      </trkpt>
      <trkpt lat="44.70905" lon="5.83582">
        <ele>1764</ele>
        <time>2016-07-21T04:34:43.234Z</time>
      </trkpt>
      <trkpt lat="44.70909" lon="5.8357">
        <ele>1764</ele>
        <time>2016-07-21T04:35:18.234Z</time>
      </trkpt>
      <trkpt lat="44.70912" lon="5.83566">
        <ele>1765</ele>
        <time>2016-07-21T04:35:31.234Z</time>
      </trkpt>
      <trkpt lat="44.70917" lon="5.83565">
        <ele>1765</ele>
        <time>2016-07-21T04:35:40.234Z</time>
      </trkpt>
      <trkpt lat="44.70921" lon="5.83568">
        <ele>1765</ele>
        <time>2016-07-21T04:35:54.234Z</time>
      </trkpt>
      <trkpt lat="44.70939" lon="5.83562">
        <ele>1774</ele>
        <time>2016-07-21T04:36:51.234Z</time>
      </trkpt>
      <trkpt lat="44.70943" lon="5.83565">
        <ele>1774</ele>
        <time>2016-07-21T04:36:55.234Z</time>
      </trkpt>
      <trkpt lat="44.70943" lon="5.83587">
        <ele>1776</ele>
        <time>2016-07-21T04:38:04.234Z</time>
      </trkpt>
      <trkpt lat="44.70939" lon="5.836">
        <ele>1779</ele>
        <time>2016-07-21T04:38:23.234Z</time>
      </trkpt>
      <trkpt lat="44.70933" lon="5.8362">
        <ele>1779</ele>
        <time>2016-07-21T04:38:51.234Z</time>
      </trkpt>
      <trkpt lat="44.70937" lon="5.83648">
        <ele>1780</ele>
        <time>2016-07-21T04:39:26.234Z</time>
      </trkpt>
      <trkpt lat="44.7094" lon="5.83654">
        <ele>1781</ele>
        <time>2016-07-21T04:39:38.234Z</time>
      </trkpt>
      <trkpt lat="44.70939" lon="5.83663">
        <ele>1781</ele>
        <time>2016-07-21T04:39:46.234Z</time>
      </trkpt>
      <trkpt lat="44.70952" lon="5.83693">
        <ele>1780</ele>
        <time>2016-07-21T04:40:26.234Z</time>
      </trkpt>
      <trkpt lat="44.70977" lon="5.83733">
        <ele>1800</ele>
        <time>2016-07-21T04:41:48.234Z</time>
      </trkpt>
      <trkpt lat="44.70992" lon="5.83759">
        <ele>1813</ele>
        <time>2016-07-21T04:42:52.234Z</time>
      </trkpt>
      <trkpt lat="44.70995" lon="5.83786">
        <ele>1808</ele>
        <time>2016-07-21T04:43:25.234Z</time>
      </trkpt>
      <trkpt lat="44.71002" lon="5.83816">
        <ele>1804</ele>
        <time>2016-07-21T04:44:00.234Z</time>
      </trkpt>
      <trkpt lat="44.71008" lon="5.83832">
        <ele>1800</ele>
        <time>2016-07-21T04:44:16.234Z</time>
      </trkpt>
      <trkpt lat="44.71012" lon="5.83836">
        <ele>1800</ele>
        <time>2016-07-21T04:44:26.234Z</time>
      </trkpt>
      <trkpt lat="44.71017" lon="5.83843">
        <ele>1821</ele>
        <time>2016-07-21T04:44:41.234Z</time>
      </trkpt>
      <trkpt lat="44.71034" lon="5.83872">
        <ele>1816</ele>
        <time>2016-07-21T04:45:59.234Z</time>
      </trkpt>
      <trkpt lat="44.71044" lon="5.83879">
        <ele>1834</ele>
        <time>2016-07-21T04:46:26.234Z</time>
      </trkpt>
      <trkpt lat="44.71053" lon="5.83883">
        <ele>1834</ele>
        <time>2016-07-21T04:47:59.234Z</time>
      </trkpt>
      <trkpt lat="44.71056" lon="5.83881">
        <ele>1834</ele>
        <time>2016-07-21T04:48:49.234Z</time>
      </trkpt>
      <trkpt lat="44.71058" lon="5.83882">
        <ele>1834</ele>
        <time>2016-07-21T04:48:56.234Z</time>
      </trkpt>
      <trkpt lat="44.7106" lon="5.8388">
        <ele>1834</ele>
        <time>2016-07-21T04:48:57.234Z</time>
      </trkpt>
      <trkpt lat="44.71062" lon="5.83879">
        <ele>1834</ele>
        <time>2016-07-21T04:49:15.234Z</time>
      </trkpt>
      <trkpt lat="44.71062" lon="5.83867">
        <ele>1839</ele>
        <time>2016-07-21T04:49:52.234Z</time>
      </trkpt>
      <trkpt lat="44.71065" lon="5.83858">
        <ele>1839</ele>
        <time>2016-07-21T04:50:24.234Z</time>
      </trkpt>
      <trkpt lat="44.71067" lon="5.83842">
        <ele>1851</ele>
        <time>2016-07-21T04:51:13.234Z</time>
      </trkpt>
      <trkpt lat="44.71069" lon="5.83841">
        <ele>1851</ele>
        <time>2016-07-21T04:51:24.234Z</time>
      </trkpt>
      <trkpt lat="44.7107" lon="5.83839">
        <ele>1873</ele>
        <time>2016-07-21T04:51:39.234Z</time>
      </trkpt>
      <trkpt lat="44.71076" lon="5.83834">
        <ele>1873</ele>
        <time>2016-07-21T04:52:15.234Z</time>
      </trkpt>
      <trkpt lat="44.71085" lon="5.83832">
        <ele>1873</ele>
        <time>2016-07-21T04:53:12.234Z</time>
      </trkpt>
      <trkpt lat="44.71088" lon="5.83833">
        <ele>1873</ele>
        <time>2016-07-21T04:53:25.234Z</time>
      </trkpt>
      <trkpt lat="44.71089" lon="5.83829">
        <ele>1873</ele>
        <time>2016-07-21T04:53:38.234Z</time>
      </trkpt>
      <trkpt lat="44.71086" lon="5.838">
        <ele>1879</ele>
        <time>2016-07-21T04:54:32.234Z</time>
      </trkpt>
      <trkpt lat="44.71082" lon="5.83788">
        <ele>1879</ele>
        <time>2016-07-21T04:54:51.234Z</time>
      </trkpt>
      <trkpt lat="44.71089" lon="5.83761">
        <ele>1878</ele>
        <time>2016-07-21T04:55:37.234Z</time>
      </trkpt>
      <trkpt lat="44.71087" lon="5.83734">
        <ele>1879</ele>
        <time>2016-07-21T04:56:21.234Z</time>
      </trkpt>
      <trkpt lat="44.71088" lon="5.83722">
        <ele>1879</ele>
        <time>2016-07-21T04:56:42.234Z</time>
      </trkpt>
      <trkpt lat="44.71091" lon="5.83717">
        <ele>1879</ele>
        <time>2016-07-21T04:56:50.234Z</time>
      </trkpt>
      <trkpt lat="44.71092" lon="5.83701">
        <ele>1881</ele>
        <time>2016-07-21T04:57:43.234Z</time>
      </trkpt>
      <trkpt lat="44.71094" lon="5.83699">
        <ele>1881</ele>
        <time>2016-07-21T04:57:56.234Z</time>
      </trkpt>
      <trkpt lat="44.71093" lon="5.837">
        <ele>1881</ele>
        <time>2016-07-21T04:58:00.234Z</time>
      </trkpt>
      <trkpt lat="44.71094" lon="5.83696">
        <ele>1881</ele>
        <time>2016-07-21T04:58:20.234Z</time>
      </trkpt>
      <trkpt lat="44.71096" lon="5.83695">
        <ele>1881</ele>
        <time>2016-07-21T04:58:54.234Z</time>
      </trkpt>
      <trkpt lat="44.71103" lon="5.8368">
        <ele>1900</ele>
        <time>2016-07-21T04:59:51.234Z</time>
      </trkpt>
      <trkpt lat="44.71107" lon="5.83673">
        <ele>1900</ele>
        <time>2016-07-21T05:00:03.234Z</time>
      </trkpt>
      <trkpt lat="44.71115" lon="5.83672">
        <ele>1900</ele>
        <time>2016-07-21T05:00:14.234Z</time>
      </trkpt>
      <trkpt lat="44.71123" lon="5.83666">
        <ele>1900</ele>
        <time>2016-07-21T05:00:28.234Z</time>
      </trkpt>
      <trkpt lat="44.71128" lon="5.83667">
        <ele>1918</ele>
        <time>2016-07-21T05:00:44.234Z</time>
      </trkpt>
      <trkpt lat="44.7113" lon="5.83669">
        <ele>1918</ele>
        <time>2016-07-21T05:00:46.234Z</time>
      </trkpt>
      <trkpt lat="44.71133" lon="5.83666">
        <ele>1918</ele>
        <time>2016-07-21T05:00:48.234Z</time>
      </trkpt>
      <trkpt lat="44.71134" lon="5.8367">
        <ele>1918</ele>
        <time>2016-07-21T05:00:54.234Z</time>
      </trkpt>
      <trkpt lat="44.71138" lon="5.83672">
        <ele>1918</ele>
        <time>2016-07-21T05:00:57.234Z</time>
      </trkpt>
      <trkpt lat="44.7114" lon="5.83682">
        <ele>1918</ele>
        <time>2016-07-21T05:01:00.234Z</time>
      </trkpt>
      <trkpt lat="44.71134" lon="5.83688">
        <ele>1918</ele>
        <time>2016-07-21T05:01:17.234Z</time>
      </trkpt>
      <trkpt lat="44.71136" lon="5.83691">
        <ele>1918</ele>
        <time>2016-07-21T05:01:24.234Z</time>
      </trkpt>
      <trkpt lat="44.71133" lon="5.83692">
        <ele>1918</ele>
        <time>2016-07-21T05:01:28.234Z</time>
      </trkpt>
      <trkpt lat="44.71133" lon="5.83696">
        <ele>1918</ele>
        <time>2016-07-21T05:01:30.234Z</time>
      </trkpt>
      <trkpt lat="44.71132" lon="5.83693">
        <ele>1918</ele>
        <time>2016-07-21T05:01:33.234Z</time>
      </trkpt>
      <trkpt lat="44.71131" lon="5.83693">
        <ele>1918</ele>
        <time>2016-07-21T05:01:46.234Z</time>
      </trkpt>
      <trkpt lat="44.71132" lon="5.8368">
        <ele>1918</ele>
        <time>2016-07-21T05:02:04.234Z</time>
      </trkpt>
      <trkpt lat="44.71131" lon="5.83674">
        <ele>1918</ele>
        <time>2016-07-21T05:02:11.234Z</time>
      </trkpt>
      <trkpt lat="44.71134" lon="5.83665">
        <ele>1918</ele>
        <time>2016-07-21T05:02:25.234Z</time>
      </trkpt>
      <trkpt lat="44.71138" lon="5.83664">
        <ele>1918</ele>
        <time>2016-07-21T05:02:27.234Z</time>
      </trkpt>
      <trkpt lat="44.71149" lon="5.83647">
        <ele>1918</ele>
        <time>2016-07-21T05:02:50.234Z</time>
      </trkpt>
      <trkpt lat="44.71155" lon="5.83639">
        <ele>1938</ele>
        <time>2016-07-21T05:02:58.234Z</time>
      </trkpt>
      <trkpt lat="44.71154" lon="5.83641">
        <ele>1938</ele>
        <time>2016-07-21T05:03:00.234Z</time>
      </trkpt>
      <trkpt lat="44.71161" lon="5.83617">
        <ele>1934</ele>
        <time>2016-07-21T05:03:14.234Z</time>
      </trkpt>
      <trkpt lat="44.71163" lon="5.83605">
        <ele>1934</ele>
        <time>2016-07-21T05:03:23.234Z</time>
      </trkpt>
      <trkpt lat="44.71163" lon="5.83601">
        <ele>1934</ele>
        <time>2016-07-21T05:03:28.234Z</time>
      </trkpt>
      <trkpt lat="44.71164" lon="5.83573">
        <ele>1928</ele>
        <time>2016-07-21T05:03:59.234Z</time>
      </trkpt>
      <trkpt lat="44.71174" lon="5.83559">
        <ele>1920</ele>
        <time>2016-07-21T05:06:12.234Z</time>
      </trkpt>
      <trkpt lat="44.71184" lon="5.83537">
        <ele>1933</ele>
        <time>2016-07-21T05:08:04.234Z</time>
      </trkpt>
      <trkpt lat="44.71192" lon="5.83521">
        <ele>1933</ele>
        <time>2016-07-21T05:08:36.234Z</time>
      </trkpt>
      <trkpt lat="44.71197" lon="5.83518">
        <ele>1933</ele>
        <time>2016-07-21T05:08:43.234Z</time>
      </trkpt>
      <trkpt lat="44.71231" lon="5.83427">
        <ele>1946</ele>
        <time>2016-07-21T05:11:37.234Z</time>
      </trkpt>
      <trkpt lat="44.71234" lon="5.83423">
        <ele>1946</ele>
        <time>2016-07-21T05:11:46.234Z</time>
      </trkpt>
      <trkpt lat="44.71241" lon="5.8341">
        <ele>1964</ele>
        <time>2016-07-21T05:12:41.234Z</time>
      </trkpt>
      <trkpt lat="44.71244" lon="5.83394">
        <ele>1964</ele>
        <time>2016-07-21T05:13:09.234Z</time>
      </trkpt>
      <trkpt lat="44.7125" lon="5.83381">
        <ele>1964</ele>
        <time>2016-07-21T05:13:33.234Z</time>
      </trkpt>
      <trkpt lat="44.713" lon="5.83307">
        <ele>1983</ele>
        <time>2016-07-21T05:17:28.234Z</time>
      </trkpt>
      <trkpt lat="44.71308" lon="5.83299">
        <ele>1983</ele>
        <time>2016-07-21T05:17:52.234Z</time>
      </trkpt>
      <trkpt lat="44.7131" lon="5.83299">
        <ele>1983</ele>
        <time>2016-07-21T05:17:56.234Z</time>
      </trkpt>
      <trkpt lat="44.71328" lon="5.83256">
        <ele>2010</ele>
        <time>2016-07-21T05:19:19.234Z</time>
      </trkpt>
      <trkpt lat="44.71348" lon="5.8321">
        <ele>2022</ele>
        <time>2016-07-21T05:20:47.234Z</time>
      </trkpt>
      <trkpt lat="44.71358" lon="5.83189">
        <ele>2028</ele>
        <time>2016-07-21T05:21:26.234Z</time>
      </trkpt>
      <trkpt lat="44.71358" lon="5.83183">
        <ele>2028</ele>
        <time>2016-07-21T05:21:39.234Z</time>
      </trkpt>
      <trkpt lat="44.71363" lon="5.83172">
        <ele>2032</ele>
        <time>2016-07-21T05:21:59.234Z</time>
      </trkpt>
      <trkpt lat="44.71368" lon="5.8317">
        <ele>2032</ele>
        <time>2016-07-21T05:22:10.234Z</time>
      </trkpt>
      <trkpt lat="44.71382" lon="5.83144">
        <ele>2042</ele>
        <time>2016-07-21T05:23:00.234Z</time>
      </trkpt>
      <trkpt lat="44.71442" lon="5.83062">
        <ele>2075</ele>
        <time>2016-07-21T05:26:59.234Z</time>
      </trkpt>
      <trkpt lat="44.71454" lon="5.83049">
        <ele>2075</ele>
        <time>2016-07-21T05:27:31.234Z</time>
      </trkpt>
      <trkpt lat="44.71456" lon="5.83051">
        <ele>2075</ele>
        <time>2016-07-21T05:27:37.234Z</time>
      </trkpt>
      <trkpt lat="44.71465" lon="5.83035">
        <ele>2084</ele>
        <time>2016-07-21T05:28:11.234Z</time>
      </trkpt>
      <trkpt lat="44.7147" lon="5.83033">
        <ele>2084</ele>
        <time>2016-07-21T05:28:21.234Z</time>
      </trkpt>
      <trkpt lat="44.71472" lon="5.83027">
        <ele>2084</ele>
        <time>2016-07-21T05:28:29.234Z</time>
      </trkpt>
      <trkpt lat="44.71484" lon="5.83013">
        <ele>2085</ele>
        <time>2016-07-21T05:29:02.234Z</time>
      </trkpt>
      <trkpt lat="44.71488" lon="5.83011">
        <ele>2094</ele>
        <time>2016-07-21T05:29:17.234Z</time>
      </trkpt>
      <trkpt lat="44.71495" lon="5.83001">
        <ele>2094</ele>
        <time>2016-07-21T05:29:37.234Z</time>
      </trkpt>
      <trkpt lat="44.7151" lon="5.82991">
        <ele>2094</ele>
        <time>2016-07-21T05:30:23.234Z</time>
      </trkpt>
      <trkpt lat="44.71513" lon="5.82986">
        <ele>2099</ele>
        <time>2016-07-21T05:30:33.234Z</time>
      </trkpt>
      <trkpt lat="44.71528" lon="5.82973">
        <ele>2112</ele>
        <time>2016-07-21T05:31:24.234Z</time>
      </trkpt>
      <trkpt lat="44.71534" lon="5.82973">
        <ele>2112</ele>
        <time>2016-07-21T05:31:35.234Z</time>
      </trkpt>
      <trkpt lat="44.71543" lon="5.82954">
        <ele>2128</ele>
        <time>2016-07-21T05:32:20.234Z</time>
      </trkpt>
      <trkpt lat="44.71572" lon="5.8292">
        <ele>2138</ele>
        <time>2016-07-21T05:34:24.234Z</time>
      </trkpt>
      <trkpt lat="44.71574" lon="5.82917">
        <ele>2138</ele>
        <time>2016-07-21T05:34:28.234Z</time>
      </trkpt>
      <trkpt lat="44.71584" lon="5.82915">
        <ele>2138</ele>
        <time>2016-07-21T05:34:52.234Z</time>
      </trkpt>
      <trkpt lat="44.7161" lon="5.82894">
        <ele>2151</ele>
        <time>2016-07-21T05:36:11.234Z</time>
      </trkpt>
      <trkpt lat="44.71618" lon="5.82884">
        <ele>2151</ele>
        <time>2016-07-21T05:36:41.234Z</time>
      </trkpt>
      <trkpt lat="44.71628" lon="5.8287">
        <ele>2169</ele>
        <time>2016-07-21T05:37:17.234Z</time>
      </trkpt>
      <trkpt lat="44.71637" lon="5.82862">
        <ele>2169</ele>
        <time>2016-07-21T05:37:41.234Z</time>
      </trkpt>
      <trkpt lat="44.71647" lon="5.82843">
        <ele>2173</ele>
        <time>2016-07-21T05:38:31.234Z</time>
      </trkpt>
      <trkpt lat="44.71658" lon="5.82831">
        <ele>2186</ele>
        <time>2016-07-21T05:39:09.234Z</time>
      </trkpt>
      <trkpt lat="44.71665" lon="5.82826">
        <ele>2186</ele>
        <time>2016-07-21T05:39:37.234Z</time>
      </trkpt>
      <trkpt lat="44.71671" lon="5.82823">
        <ele>2186</ele>
        <time>2016-07-21T05:40:04.234Z</time>
      </trkpt>
      <trkpt lat="44.71677" lon="5.82819">
        <ele>2187</ele>
        <time>2016-07-21T05:40:26.234Z</time>
      </trkpt>
      <trkpt lat="44.71684" lon="5.82815">
        <ele>2202</ele>
        <time>2016-07-21T05:40:55.234Z</time>
      </trkpt>
      <trkpt lat="44.71684" lon="5.82794">
        <ele>2202</ele>
        <time>2016-07-21T05:41:42.234Z</time>
      </trkpt>
      <trkpt lat="44.71682" lon="5.82762">
        <ele>2210</ele>
        <time>2016-07-21T05:42:27.234Z</time>
      </trkpt>
      <trkpt lat="44.71685" lon="5.82741">
        <ele>2210</ele>
        <time>2016-07-21T05:42:59.234Z</time>
      </trkpt>
      <trkpt lat="44.71687" lon="5.82742">
        <ele>2210</ele>
        <time>2016-07-21T05:43:08.234Z</time>
      </trkpt>
      <trkpt lat="44.71696" lon="5.82731">
        <ele>2212</ele>
        <time>2016-07-21T05:43:32.234Z</time>
      </trkpt>
      <trkpt lat="44.71717" lon="5.8273">
        <ele>2220</ele>
        <time>2016-07-21T05:44:33.234Z</time>
      </trkpt>
      <trkpt lat="44.7173" lon="5.82726">
        <ele>2220</ele>
        <time>2016-07-21T05:45:13.234Z</time>
      </trkpt>
      <trkpt lat="44.71735" lon="5.82718">
        <ele>2220</ele>
        <time>2016-07-21T05:45:28.234Z</time>
      </trkpt>
      <trkpt lat="44.71758" lon="5.82705">
        <ele>2231</ele>
        <time>2016-07-21T05:46:46.234Z</time>
      </trkpt>
      <trkpt lat="44.71769" lon="5.82688">
        <ele>2251</ele>
        <time>2016-07-21T05:47:45.234Z</time>
      </trkpt>
      <trkpt lat="44.71777" lon="5.82692">
        <ele>2251</ele>
        <time>2016-07-21T05:48:14.234Z</time>
      </trkpt>
      <trkpt lat="44.71792" lon="5.82683">
        <ele>2273</ele>
        <time>2016-07-21T05:48:59.234Z</time>
      </trkpt>
      <trkpt lat="44.71811" lon="5.8268">
        <ele>2267</ele>
        <time>2016-07-21T05:50:15.234Z</time>
      </trkpt>
      <trkpt lat="44.71819" lon="5.82674">
        <ele>2267</ele>
        <time>2016-07-21T05:50:59.234Z</time>
      </trkpt>
      <trkpt lat="44.71835" lon="5.82679">
        <ele>2283</ele>
        <time>2016-07-21T05:51:44.234Z</time>
      </trkpt>
      <trkpt lat="44.71848" lon="5.82677">
        <ele>2293</ele>
        <time>2016-07-21T05:52:26.234Z</time>
      </trkpt>
      <trkpt lat="44.7185" lon="5.82679">
        <ele>2293</ele>
        <time>2016-07-21T05:52:34.234Z</time>
      </trkpt>
      <trkpt lat="44.71857" lon="5.82686">
        <ele>2295</ele>
        <time>2016-07-21T05:53:56.234Z</time>
      </trkpt>
      <trkpt lat="44.71868" lon="5.82692">
        <ele>2295</ele>
        <time>2016-07-21T05:54:23.234Z</time>
      </trkpt>
      <trkpt lat="44.71875" lon="5.82696">
        <ele>2295</ele>
        <time>2016-07-21T05:54:59.234Z</time>
      </trkpt>
      <trkpt lat="44.7188" lon="5.82695">
        <ele>2305</ele>
        <time>2016-07-21T05:55:12.234Z</time>
      </trkpt>
      <trkpt lat="44.71882" lon="5.82698">
        <ele>2305</ele>
        <time>2016-07-21T05:55:17.234Z</time>
      </trkpt>
      <trkpt lat="44.71888" lon="5.82714">
        <ele>2312</ele>
        <time>2016-07-21T05:56:31.234Z</time>
      </trkpt>
      <trkpt lat="44.71892" lon="5.8273">
        <ele>2312</ele>
        <time>2016-07-21T05:57:25.234Z</time>
      </trkpt>
      <trkpt lat="44.71892" lon="5.82741">
        <ele>2321</ele>
        <time>2016-07-21T05:57:59.234Z</time>
      </trkpt>
      <trkpt lat="44.719" lon="5.82755">
        <ele>2321</ele>
        <time>2016-07-21T05:58:41.234Z</time>
      </trkpt>
      <trkpt lat="44.7192" lon="5.82751">
        <ele>2341</ele>
        <time>2016-07-21T05:59:30.234Z</time>
      </trkpt>
      <trkpt lat="44.71926" lon="5.8274">
        <ele>2341</ele>
        <time>2016-07-21T05:59:53.234Z</time>
      </trkpt>
      <trkpt lat="44.71935" lon="5.82733">
        <ele>2350</ele>
        <time>2016-07-21T06:00:16.234Z</time>
      </trkpt>
      <trkpt lat="44.71946" lon="5.82714">
        <ele>2350</ele>
        <time>2016-07-21T06:01:16.234Z</time>
      </trkpt>
      <trkpt lat="44.71957" lon="5.82706">
        <ele>2342</ele>
        <time>2016-07-21T06:01:47.234Z</time>
      </trkpt>
      <trkpt lat="44.71966" lon="5.827">
        <ele>2356</ele>
        <time>2016-07-21T06:02:13.234Z</time>
      </trkpt>
      <trkpt lat="44.71973" lon="5.8269">
        <ele>2356</ele>
        <time>2016-07-21T06:02:37.234Z</time>
      </trkpt>
      <trkpt lat="44.71977" lon="5.8269">
        <ele>2356</ele>
        <time>2016-07-21T06:02:50.234Z</time>
      </trkpt>
      <trkpt lat="44.71984" lon="5.82684">
        <ele>2356</ele>
        <time>2016-07-21T06:03:05.234Z</time>
      </trkpt>
      <trkpt lat="44.71992" lon="5.82675">
        <ele>2352</ele>
        <time>2016-07-21T06:03:22.234Z</time>
      </trkpt>
      <trkpt lat="44.72" lon="5.82664">
        <ele>2352</ele>
        <time>2016-07-21T06:03:54.234Z</time>
      </trkpt>
      <trkpt lat="44.72008" lon="5.82651">
        <ele>2361</ele>
        <time>2016-07-21T06:04:40.234Z</time>
      </trkpt>
      <trkpt lat="44.71994" lon="5.82614">
        <ele>2368</ele>
        <time>2016-07-21T06:05:57.234Z</time>
      </trkpt>
      <trkpt lat="44.71992" lon="5.82601">
        <ele>2368</ele>
        <time>2016-07-21T06:06:17.234Z</time>
      </trkpt>
      <trkpt lat="44.71978" lon="5.82582">
        <ele>2365</ele>
        <time>2016-07-21T06:07:24.234Z</time>
      </trkpt>
      <trkpt lat="44.71968" lon="5.82552">
        <ele>2388</ele>
        <time>2016-07-21T06:08:01.234Z</time>
      </trkpt>
      <trkpt lat="44.71934" lon="5.82529">
        <ele>2343.1</ele>
        <time>2016-07-21T06:09:30.234Z</time>
      </trkpt>
      <trkpt lat="44.71925" lon="5.82524">
        <ele>2341.3</ele>
        <time>2016-07-21T06:09:47.234Z</time>
      </trkpt>
      <trkpt lat="44.71919" lon="5.82519">
        <ele>2339.6</ele>
        <time>2016-07-21T06:09:54.234Z</time>
      </trkpt>
      <trkpt lat="44.71914" lon="5.82514">
        <ele>2339.3</ele>
        <time>2016-07-21T06:09:59.234Z</time>
      </trkpt>
      <trkpt lat="44.71908" lon="5.82505">
        <ele>2340.2</ele>
      </trkpt>
      <trkpt lat="44.71905" lon="5.82502">
        <ele>2340.1</ele>
        <time>2016-07-21T06:10:12.234Z</time>
      </trkpt>
      <trkpt lat="44.71903" lon="5.82499">
        <ele>2340.4</ele>
        <time>2016-07-21T06:10:18.234Z</time>
      </trkpt>
      <trkpt lat="44.71898" lon="5.82492">
        <ele>2341.2</ele>
        <time>2016-07-21T06:10:26.234Z</time>
      </trkpt>
      <trkpt lat="44.7189" lon="5.82481">
        <ele>2342</ele>
      </trkpt>
      <trkpt lat="44.71883" lon="5.8247">
        <ele>2342.8</ele>
      </trkpt>
      <trkpt lat="44.71875" lon="5.82449">
        <ele>2354</ele>
        <time>2016-07-21T06:11:32.234Z</time>
      </trkpt>
      <trkpt lat="44.71871" lon="5.82446">
        <ele>2354</ele>
        <time>2016-07-21T06:11:39.234Z</time>
      </trkpt>
      <trkpt lat="44.71865" lon="5.82434">
        <ele>2354</ele>
        <time>2016-07-21T06:11:56.234Z</time>
      </trkpt>
      <trkpt lat="44.71863" lon="5.82423">
        <ele>2366</ele>
        <time>2016-07-21T06:12:05.234Z</time>
      </trkpt>
      <trkpt lat="44.71861" lon="5.82422">
        <ele>2366</ele>
        <time>2016-07-21T06:12:10.234Z</time>
      </trkpt>
      <trkpt lat="44.71861" lon="5.82409">
        <ele>2366</ele>
        <time>2016-07-21T06:12:55.234Z</time>
      </trkpt>
      <trkpt lat="44.71853" lon="5.82389">
        <ele>2368</ele>
        <time>2016-07-21T06:13:14.234Z</time>
      </trkpt>
      <trkpt lat="44.71855" lon="5.8238">
        <ele>2368</ele>
        <time>2016-07-21T06:13:27.234Z</time>
      </trkpt>
      <trkpt lat="44.71864" lon="5.82383">
        <ele>2361.8</ele>
        <time>2016-07-21T06:13:53.234Z</time>
      </trkpt>
      <trkpt lat="44.71878" lon="5.82386">
        <ele>2391</ele>
        <time>2016-07-21T06:14:36.234Z</time>
      </trkpt>
      <trkpt lat="44.71881" lon="5.82393">
        <ele>2391</ele>
        <time>2016-07-21T06:14:57.234Z</time>
      </trkpt>
      <trkpt lat="44.71884" lon="5.82395">
        <ele>2391</ele>
        <time>2016-07-21T06:15:07.234Z</time>
      </trkpt>
      <trkpt lat="44.71884" lon="5.82383">
        <ele>2391</ele>
        <time>2016-07-21T06:15:34.234Z</time>
      </trkpt>
      <trkpt lat="44.71886" lon="5.8236">
        <ele>2391</ele>
        <time>2016-07-21T06:16:58.234Z</time>
      </trkpt>
      <trkpt lat="44.71895" lon="5.82358">
        <ele>2391</ele>
        <time>2016-07-21T06:17:59.234Z</time>
      </trkpt>
      <trkpt lat="44.71908" lon="5.8236">
        <ele>2415</ele>
        <time>2016-07-21T06:19:27.234Z</time>
      </trkpt>
      <trkpt lat="44.7191" lon="5.82357">
        <ele>2415</ele>
        <time>2016-07-21T06:19:38.234Z</time>
      </trkpt>
      <trkpt lat="44.71913" lon="5.82351">
        <ele>2415</ele>
        <time>2016-07-21T06:20:17.234Z</time>
      </trkpt>
      <trkpt lat="44.71922" lon="5.82349">
        <ele>2415</ele>
      </trkpt>
      <trkpt lat="44.71925" lon="5.82321">
        <ele>2416</ele>
        <time>2016-07-21T06:22:59.234Z</time>
      </trkpt>
      <trkpt lat="44.71929" lon="5.82316">
        <ele>2423.9</ele>
        <time>2016-07-21T06:24:15.234Z</time>
      </trkpt>
      <trkpt lat="44.71931" lon="5.8231">
        <ele>2426.6</ele>
      </trkpt>
      <trkpt lat="44.71934" lon="5.82297">
        <ele>2429.8</ele>
        <time>2016-07-21T06:24:35.234Z</time>
      </trkpt>
      <trkpt lat="44.71944" lon="5.82317">
        <ele>2446</ele>
        <time>2016-07-21T06:25:41.234Z</time>
      </trkpt>
      <trkpt lat="44.71948" lon="5.82319">
        <ele>2446</ele>
        <time>2016-07-21T06:25:50.234Z</time>
      </trkpt>
      <trkpt lat="44.71962" lon="5.82313">
        <ele>2475</ele>
        <time>2016-07-21T06:26:45.234Z</time>
      </trkpt>
      <trkpt lat="44.71963" lon="5.8231">
        <ele>2475</ele>
        <time>2016-07-21T06:26:50.234Z</time>
      </trkpt>
      <trkpt lat="44.71977" lon="5.82296">
        <ele>2482.2</ele>
        <time>2016-07-21T06:28:09.234Z</time>
      </trkpt>
      <trkpt lat="44.7198" lon="5.82286">
        <ele>2486.5</ele>
      </trkpt>
      <trkpt lat="44.71981" lon="5.82278">
        <ele>2488.7</ele>
      </trkpt>
      <trkpt lat="44.71992" lon="5.82272">
        <ele>2508.9</ele>
        <time>2016-07-21T06:31:04.234Z</time>
      </trkpt>
      <trkpt lat="44.71994" lon="5.82268">
        <ele>2512</ele>
      </trkpt>
      <trkpt lat="44.71998" lon="5.82263">
        <ele>2520</ele>
      </trkpt>
      <trkpt lat="44.71999" lon="5.82259">
        <ele>2518</ele>
        <time>2016-07-21T06:34:38.234Z</time>
      </trkpt>
      <trkpt lat="44.72001" lon="5.82258">
        <ele>2525.6</ele>
      </trkpt>
      <trkpt lat="44.72003" lon="5.82255">
        <ele>2525.7</ele>
      </trkpt>
      <trkpt lat="44.72004" lon="5.82258">
        <ele>2524.8</ele>
      </trkpt>
      <trkpt lat="44.72004" lon="5.82256">
        <ele>2525</ele>
      </trkpt>
      <trkpt lat="44.7201" lon="5.82254">
        <ele>2523.5</ele>
      </trkpt>
      <trkpt lat="44.72008" lon="5.82249">
        <ele>2518</ele>
        <time>2016-07-21T06:36:55.234Z</time>
      </trkpt>
      <trkpt lat="44.72009" lon="5.82243">
        <ele>2518</ele>
        <time>2016-07-21T06:37:25.234Z</time>
      </trkpt>
      <trkpt lat="44.72015" lon="5.82236">
        <ele>2491</ele>
        <time>2016-07-21T06:37:46.234Z</time>
      </trkpt>
      <trkpt lat="44.72023" lon="5.82221">
        <ele>2490</ele>
        <time>2016-07-21T06:39:19.234Z</time>
      </trkpt>
      <trkpt lat="44.7202" lon="5.82211">
        <ele>2490</ele>
        <time>2016-07-21T06:39:50.234Z</time>
      </trkpt>
      <trkpt lat="44.7202" lon="5.82208">
        <ele>2490</ele>
        <time>2016-07-21T06:40:29.234Z</time>
      </trkpt>
      <trkpt lat="44.72019" lon="5.82202">
        <ele>2489</ele>
        <time>2016-07-21T06:40:47.234Z</time>
      </trkpt>
      <trkpt lat="44.72019" lon="5.82182">
        <ele>2489</ele>
        <time>2016-07-21T06:48:46.234Z</time>
      </trkpt>
      <trkpt lat="44.72021" lon="5.82156">
        <ele>2493</ele>
        <time>2016-07-21T06:50:07.234Z</time>
      </trkpt>
      <trkpt lat="44.72025" lon="5.82153">
        <ele>2501</ele>
        <time>2016-07-21T06:50:52.234Z</time>
      </trkpt>
      <trkpt lat="44.7203" lon="5.82129">
        <ele>2534</ele>
        <time>2016-07-21T06:52:03.234Z</time>
      </trkpt>
      <trkpt lat="44.72042" lon="5.82104">
        <ele>2504</ele>
        <time>2016-07-21T06:54:59.234Z</time>
      </trkpt>
      <trkpt lat="44.72047" lon="5.8209">
        <ele>2511</ele>
        <time>2016-07-21T06:56:11.234Z</time>
      </trkpt>
      <trkpt lat="44.72049" lon="5.82089">
        <ele>2511</ele>
        <time>2016-07-21T06:56:36.234Z</time>
      </trkpt>
      <trkpt lat="44.72053" lon="5.82066">
        <ele>2510</ele>
        <time>2016-07-21T06:58:06.234Z</time>
      </trkpt>
      <trkpt lat="44.72052" lon="5.82041">
        <ele>2510</ele>
        <time>2016-07-21T06:58:48.234Z</time>
      </trkpt>
      <trkpt lat="44.72042" lon="5.8202">
        <ele>2510</ele>
        <time>2016-07-21T06:59:51.234Z</time>
      </trkpt>
      <trkpt lat="44.72044" lon="5.82001">
        <ele>2550.1</ele>
        <time>2016-07-21T07:01:33.234Z</time>
      </trkpt>
      <trkpt lat="44.72043" lon="5.81991">
        <ele>2510</ele>
        <time>2016-07-21T07:01:56.234Z</time>
      </trkpt>
      <trkpt lat="44.72048" lon="5.8198">
        <ele>2513</ele>
        <time>2016-07-21T07:02:20.234Z</time>
      </trkpt>
      <trkpt lat="44.72048" lon="5.81968">
        <ele>2513</ele>
        <time>2016-07-21T07:02:48.234Z</time>
      </trkpt>
      <trkpt lat="44.72048" lon="5.8196">
        <ele>2513</ele>
        <time>2016-07-21T07:03:13.234Z</time>
      </trkpt>
      <trkpt lat="44.7204" lon="5.81962">
        <ele>2513</ele>
        <time>2016-07-21T07:03:52.234Z</time>
      </trkpt>
      <trkpt lat="44.7204" lon="5.81955">
        <ele>2511</ele>
        <time>2016-07-21T07:04:07.234Z</time>
      </trkpt>
      <trkpt lat="44.72049" lon="5.81942">
        <ele>2517</ele>
        <time>2016-07-21T07:04:27.234Z</time>
      </trkpt>
      <trkpt lat="44.72068" lon="5.8188">
        <ele>2531</ele>
        <time>2016-07-21T07:07:14.234Z</time>
      </trkpt>
      <trkpt lat="44.72067" lon="5.81873">
        <ele>2539</ele>
        <time>2016-07-21T07:07:22.234Z</time>
      </trkpt>
      <trkpt lat="44.7207" lon="5.81864">
        <ele>2562.2</ele>
        <time>2016-07-21T07:07:49.234Z</time>
      </trkpt>
      <trkpt lat="44.72072" lon="5.8186">
        <ele>2562.7</ele>
      </trkpt>
      <trkpt lat="44.72075" lon="5.81849">
        <ele>2565.6</ele>
        <time>2016-07-21T07:07:59.234Z</time>
      </trkpt>
      <trkpt lat="44.72085" lon="5.81822">
        <ele>2555</ele>
        <time>2016-07-21T07:09:33.234Z</time>
      </trkpt>
      <trkpt lat="44.72085" lon="5.81815">
        <ele>2563</ele>
        <time>2016-07-21T07:09:41.234Z</time>
      </trkpt>
      <trkpt lat="44.72087" lon="5.81811">
        <ele>2563</ele>
        <time>2016-07-21T07:09:52.234Z</time>
      </trkpt>
      <trkpt lat="44.72097" lon="5.818">
        <ele>2563</ele>
        <time>2016-07-21T07:10:40.234Z</time>
      </trkpt>
      <trkpt lat="44.72104" lon="5.81784">
        <ele>2561</ele>
        <time>2016-07-21T07:11:17.234Z</time>
      </trkpt>
      <trkpt lat="44.72114" lon="5.81766">
        <ele>2561</ele>
        <time>2016-07-21T07:11:56.234Z</time>
      </trkpt>
      <trkpt lat="44.72116" lon="5.81766">
        <ele>2561</ele>
        <time>2016-07-21T07:11:59.234Z</time>
      </trkpt>
      <trkpt lat="44.72116" lon="5.81768">
        <ele>2561</ele>
        <time>2016-07-21T07:12:01.234Z</time>
      </trkpt>
      <trkpt lat="44.72118" lon="5.81767">
        <ele>2561</ele>
        <time>2016-07-21T07:12:16.234Z</time>
      </trkpt>
      <trkpt lat="44.72133" lon="5.81753">
        <ele>2557</ele>
        <time>2016-07-21T07:14:32.234Z</time>
      </trkpt>
      <trkpt lat="44.72136" lon="5.81753">
        <ele>2557</ele>
        <time>2016-07-21T07:14:37.234Z</time>
      </trkpt>
      <trkpt lat="44.72149" lon="5.81732">
        <ele>2572</ele>
        <time>2016-07-21T07:15:13.234Z</time>
      </trkpt>
      <trkpt lat="44.72158" lon="5.81728">
        <ele>2576.3</ele>
        <time>2016-07-21T07:15:33.234Z</time>
      </trkpt>
      <trkpt lat="44.72161" lon="5.81723">
        <ele>2563</ele>
        <time>2016-07-21T07:16:01.234Z</time>
      </trkpt>
      <trkpt lat="44.7217" lon="5.81715">
        <ele>2563</ele>
        <time>2016-07-21T07:16:21.234Z</time>
      </trkpt>
      <trkpt lat="44.72174" lon="5.8171">
        <ele>2563</ele>
        <time>2016-07-21T07:17:27.234Z</time>
      </trkpt>
      <trkpt lat="44.72177" lon="5.8171">
        <ele>2563</ele>
        <time>2016-07-21T07:17:31.234Z</time>
      </trkpt>
      <trkpt lat="44.72184" lon="5.81708">
        <ele>2583.2</ele>
        <time>2016-07-21T07:18:11.234Z</time>
      </trkpt>
      <trkpt lat="44.72188" lon="5.81705">
        <ele>2584.4</ele>
        <time>2016-07-21T07:18:42.234Z</time>
      </trkpt>
      <trkpt lat="44.7219" lon="5.81705">
        <ele>2583.5</ele>
        <time>2016-07-21T07:18:54.234Z</time>
      </trkpt>
      <trkpt lat="44.72196" lon="5.81704">
        <ele>2583.4</ele>
        <time>2016-07-21T07:19:07.234Z</time>
      </trkpt>
      <trkpt lat="44.72199" lon="5.81701">
        <ele>2584.9</ele>
        <time>2016-07-21T07:19:09.234Z</time>
      </trkpt>
      <trkpt lat="44.72202" lon="5.81698">
        <ele>2587.4</ele>
        <time>2016-07-21T07:19:34.234Z</time>
      </trkpt>
      <trkpt lat="44.72206" lon="5.81696">
        <ele>2589.1</ele>
      </trkpt>
      <trkpt lat="44.72211" lon="5.81693">
        <ele>2590.4</ele>
        <time>2016-07-21T07:19:50.234Z</time>
      </trkpt>
      <trkpt lat="44.72217" lon="5.81688">
        <ele>2594.5</ele>
        <time>2016-07-21T07:20:28.234Z</time>
      </trkpt>
      <trkpt lat="44.72222" lon="5.81694">
        <ele>2587.8</ele>
        <time>2016-07-21T07:20:51.234Z</time>
      </trkpt>
      <trkpt lat="44.72239" lon="5.81689">
        <ele>2591.2</ele>
        <time>2016-07-21T07:21:18.234Z</time>
      </trkpt>
      <trkpt lat="44.72239" lon="5.81688">
        <ele>2592.4</ele>
      </trkpt>
      <trkpt lat="44.72243" lon="5.81688">
        <ele>2592.4</ele>
      </trkpt>
      <trkpt lat="44.72248" lon="5.81685">
        <ele>2594.9</ele>
        <time>2016-07-21T07:21:41.234Z</time>
      </trkpt>
      <trkpt lat="44.72256" lon="5.81679">
        <ele>2600.7</ele>
      </trkpt>
      <trkpt lat="44.72264" lon="5.81678">
        <ele>2594</ele>
        <time>2016-07-21T07:22:45.234Z</time>
      </trkpt>
      <trkpt lat="44.72268" lon="5.81678">
        <ele>2594</ele>
        <time>2016-07-21T07:22:49.234Z</time>
      </trkpt>
      <trkpt lat="44.72267" lon="5.81689">
        <ele>2570</ele>
        <time>2016-07-21T07:22:59.234Z</time>
      </trkpt>
      <trkpt lat="44.72272" lon="5.81687">
        <ele>2594.3</ele>
      </trkpt>
      <trkpt lat="44.72271" lon="5.81692">
        <ele>2570</ele>
        <time>2016-07-21T07:23:20.234Z</time>
      </trkpt>
      <trkpt lat="44.72279" lon="5.81692">
        <ele>2589.7</ele>
        <time>2016-07-21T07:23:52.234Z</time>
      </trkpt>
      <trkpt lat="44.72282" lon="5.81696">
        <ele>2586.7</ele>
        <time>2016-07-21T07:24:05.234Z</time>
      </trkpt>
      <trkpt lat="44.72286" lon="5.817">
        <ele>2583.8</ele>
      </trkpt>
      <trkpt lat="44.72291" lon="5.81703">
        <ele>2570</ele>
        <time>2016-07-21T07:24:34.234Z</time>
      </trkpt>
      <trkpt lat="44.72294" lon="5.817">
        <ele>2576</ele>
        <time>2016-07-21T07:24:39.234Z</time>
      </trkpt>
      <trkpt lat="44.72302" lon="5.81695">
        <ele>2576</ele>
        <time>2016-07-21T07:25:44.234Z</time>
      </trkpt>
      <trkpt lat="44.72305" lon="5.81689">
        <ele>2576</ele>
        <time>2016-07-21T07:25:56.234Z</time>
      </trkpt>
      <trkpt lat="44.72305" lon="5.81691">
        <ele>2576</ele>
        <time>2016-07-21T07:26:02.234Z</time>
      </trkpt>
      <trkpt lat="44.72312" lon="5.81687">
        <ele>2576</ele>
        <time>2016-07-21T07:26:21.234Z</time>
      </trkpt>
      <trkpt lat="44.7231" lon="5.81688">
        <ele>2576</ele>
        <time>2016-07-21T07:26:25.234Z</time>
      </trkpt>
      <trkpt lat="44.72314" lon="5.81681">
        <ele>2576</ele>
        <time>2016-07-21T07:27:23.234Z</time>
      </trkpt>
      <trkpt lat="44.72316" lon="5.81682">
        <ele>2576</ele>
        <time>2016-07-21T07:27:29.234Z</time>
      </trkpt>
      <trkpt lat="44.72322" lon="5.81679">
        <ele>2602</ele>
        <time>2016-07-21T07:27:51.234Z</time>
      </trkpt>
      <trkpt lat="44.72324" lon="5.8168">
        <ele>2602</ele>
        <time>2016-07-21T07:27:55.234Z</time>
      </trkpt>
      <trkpt lat="44.7232" lon="5.8167">
        <ele>2619.6</ele>
      </trkpt>
      <trkpt lat="44.72325" lon="5.81661">
        <ele>2602</ele>
        <time>2016-07-21T07:29:29.234Z</time>
      </trkpt>
      <trkpt lat="44.72322" lon="5.81656">
        <ele>2602</ele>
        <time>2016-07-21T07:29:50.234Z</time>
      </trkpt>
      <trkpt lat="44.7232" lon="5.81658">
        <ele>2602</ele>
        <time>2016-07-21T07:29:53.234Z</time>
      </trkpt>
      <trkpt lat="44.72316" lon="5.81653">
        <ele>2598</ele>
        <time>2016-07-21T07:30:07.234Z</time>
      </trkpt>
      <trkpt lat="44.72318" lon="5.81655">
        <ele>2598</ele>
        <time>2016-07-21T07:30:12.234Z</time>
      </trkpt>
      <trkpt lat="44.7232" lon="5.81654">
        <ele>2602</ele>
        <time>2016-07-21T07:30:33.234Z</time>
      </trkpt>
      <trkpt lat="44.72322" lon="5.81657">
        <ele>2602</ele>
        <time>2016-07-21T07:30:37.234Z</time>
      </trkpt>
      <trkpt lat="44.72324" lon="5.81655">
        <ele>2602</ele>
        <time>2016-07-21T07:30:41.234Z</time>
      </trkpt>
      <trkpt lat="44.72321" lon="5.81657">
        <ele>2602</ele>
        <time>2016-07-21T07:30:43.234Z</time>
      </trkpt>
      <trkpt lat="44.72329" lon="5.8165">
        <ele>2643.7</ele>
      </trkpt>
      <trkpt lat="44.72339" lon="5.81642">
        <ele>2628</ele>
        <time>2016-07-21T07:33:04.234Z</time>
      </trkpt>
      <trkpt lat="44.72337" lon="5.81636">
        <ele>2628</ele>
        <time>2016-07-21T07:34:59.234Z</time>
      </trkpt>
      <trkpt lat="44.7233" lon="5.81625">
        <ele>2668</ele>
      </trkpt>
      <trkpt lat="44.72333" lon="5.81618">
        <ele>2674.9</ele>
      </trkpt>
      <trkpt lat="44.72329" lon="5.81616">
        <ele>2675.8</ele>
      </trkpt>
      <trkpt lat="44.72325" lon="5.81612">
        <ele>2679.2</ele>
      </trkpt>
      <trkpt lat="44.72329" lon="5.81612">
        <ele>2680</ele>
      </trkpt>
      <trkpt lat="44.72335" lon="5.81615">
        <ele>2678.3</ele>
      </trkpt>
      <trkpt lat="44.72331" lon="5.81611">
        <ele>2681.1</ele>
      </trkpt>
      <trkpt lat="44.72337" lon="5.81611">
        <ele>2681.5</ele>
      </trkpt>
      <trkpt lat="44.7234" lon="5.81603">
        <ele>2654</ele>
        <time>2016-07-21T07:38:26.234Z</time>
      </trkpt>
      <trkpt lat="44.72339" lon="5.81562">
        <ele>2704.7</ele>
      </trkpt>
      <trkpt lat="44.72324" lon="5.81536">
        <ele>2713.3</ele>
      </trkpt>
      <trkpt lat="44.72308" lon="5.81528">
        <ele>2721.9</ele>
      </trkpt>
      <trkpt lat="44.72303" lon="5.8152">
        <ele>2721.8</ele>
      </trkpt>
      <trkpt lat="44.72283" lon="5.81514">
        <ele>2724.5</ele>
      </trkpt>
      <trkpt lat="44.72267" lon="5.81513">
        <ele>2726</ele>
      </trkpt>
      <trkpt lat="44.72261" lon="5.81502">
        <ele>2724</ele>
      </trkpt>
      <trkpt lat="44.72252" lon="5.81505">
        <ele>2725</ele>
        <time>2016-07-21T08:14:49.234Z</time>
      </trkpt>
      <trkpt lat="44.72244" lon="5.81494">
        <ele>2719</ele>
        <time>2016-07-21T08:16:07.234Z</time>
      </trkpt>
      <trkpt lat="44.72231" lon="5.81484">
        <ele>2704</ele>
        <time>2016-07-21T08:17:48.234Z</time>
      </trkpt>
      <trkpt lat="44.72226" lon="5.81487">
        <ele>2716.5</ele>
        <time>2016-07-21T08:18:02.234Z</time>
      </trkpt>
      <trkpt lat="44.72224" lon="5.81486">
        <ele>2704</ele>
        <time>2016-07-21T08:18:36.234Z</time>
      </trkpt>
      <trkpt lat="44.72214" lon="5.81483">
        <ele>2704</ele>
        <time>2016-07-21T08:19:10.234Z</time>
      </trkpt>
      <trkpt lat="44.72202" lon="5.81483">
        <ele>2706</ele>
        <time>2016-07-21T08:19:59.234Z</time>
      </trkpt>
      <trkpt lat="44.72199" lon="5.81481">
        <ele>2706</ele>
        <time>2016-07-21T08:20:54.234Z</time>
      </trkpt>
      <trkpt lat="44.72195" lon="5.81481">
        <ele>2718.7</ele>
        <time>2016-07-21T08:21:09.234Z</time>
      </trkpt>
      <trkpt lat="44.7219" lon="5.81479">
        <ele>2706</ele>
        <time>2016-07-21T08:21:56.234Z</time>
      </trkpt>
      <trkpt lat="44.72177" lon="5.81482">
        <ele>2707</ele>
        <time>2016-07-21T08:23:52.234Z</time>
      </trkpt>
      <trkpt lat="44.72177" lon="5.81477">
        <ele>2707</ele>
        <time>2016-07-21T08:24:14.234Z</time>
      </trkpt>
      <trkpt lat="44.72174" lon="5.81481">
        <ele>2707</ele>
        <time>2016-07-21T08:24:36.234Z</time>
      </trkpt>
      <trkpt lat="44.72169" lon="5.81483">
        <ele>2707</ele>
        <time>2016-07-21T08:24:59.234Z</time>
      </trkpt>
      <trkpt lat="44.72169" lon="5.81485">
        <ele>2707</ele>
        <time>2016-07-21T08:25:01.234Z</time>
      </trkpt>
      <trkpt lat="44.72169" lon="5.8148">
        <ele>2707</ele>
        <time>2016-07-21T08:25:41.234Z</time>
      </trkpt>
      <trkpt lat="44.72168" lon="5.81481">
        <ele>2707</ele>
        <time>2016-07-21T08:25:59.234Z</time>
      </trkpt>
      <trkpt lat="44.72176" lon="5.81485">
        <ele>2725</ele>
        <time>2016-07-21T08:26:17.234Z</time>
      </trkpt>
      <trkpt lat="44.72175" lon="5.81491">
        <ele>2728.8</ele>
      </trkpt>
      <trkpt lat="44.72171" lon="5.81496">
        <ele>2744</ele>
        <time>2016-07-21T08:27:08.234Z</time>
      </trkpt>
      <trkpt lat="44.72172" lon="5.81499">
        <ele>2744</ele>
        <time>2016-07-21T08:27:18.234Z</time>
      </trkpt>
      <trkpt lat="44.7217" lon="5.81506">
        <ele>2744</ele>
        <time>2016-07-21T08:27:51.234Z</time>
      </trkpt>
      <trkpt lat="44.7216" lon="5.81521">
        <ele>2731</ele>
        <time>2016-07-21T08:30:27.234Z</time>
      </trkpt>
      <trkpt lat="44.72157" lon="5.81522">
        <ele>2731</ele>
        <time>2016-07-21T08:30:37.234Z</time>
      </trkpt>
      <trkpt lat="44.72155" lon="5.8152">
        <ele>2731</ele>
        <time>2016-07-21T08:30:44.234Z</time>
      </trkpt>
      <trkpt lat="44.72142" lon="5.81522">
        <ele>2710</ele>
        <time>2016-07-21T08:31:31.234Z</time>
      </trkpt>
      <trkpt lat="44.72137" lon="5.81532">
        <ele>2710</ele>
        <time>2016-07-21T08:32:00.234Z</time>
      </trkpt>
      <trkpt lat="44.72133" lon="5.81542">
        <ele>2700</ele>
        <time>2016-07-21T08:33:45.234Z</time>
      </trkpt>
      <trkpt lat="44.72135" lon="5.81543">
        <ele>2700</ele>
        <time>2016-07-21T08:33:55.234Z</time>
      </trkpt>
      <trkpt lat="44.72134" lon="5.81546">
        <ele>2700</ele>
        <time>2016-07-21T08:33:59.234Z</time>
      </trkpt>
      <trkpt lat="44.72136" lon="5.81548">
        <ele>2700</ele>
        <time>2016-07-21T08:34:35.234Z</time>
      </trkpt>
      <trkpt lat="44.72135" lon="5.81555">
        <ele>2700</ele>
        <time>2016-07-21T08:35:13.234Z</time>
      </trkpt>
      <trkpt lat="44.72134" lon="5.81559">
        <ele>2700</ele>
        <time>2016-07-21T08:35:42.234Z</time>
      </trkpt>
      <trkpt lat="44.72129" lon="5.81578">
        <ele>2690</ele>
        <time>2016-07-21T08:36:33.234Z</time>
      </trkpt>
      <trkpt lat="44.72123" lon="5.81575">
        <ele>2675</ele>
        <time>2016-07-21T08:36:45.234Z</time>
      </trkpt>
      <trkpt lat="44.72126" lon="5.81586">
        <ele>2690</ele>
        <time>2016-07-21T08:37:15.234Z</time>
      </trkpt>
      <trkpt lat="44.72129" lon="5.81591">
        <ele>2690</ele>
        <time>2016-07-21T08:37:28.234Z</time>
      </trkpt>
      <trkpt lat="44.72126" lon="5.81596">
        <ele>2690</ele>
        <time>2016-07-21T08:37:48.234Z</time>
      </trkpt>
      <trkpt lat="44.72126" lon="5.81596">
        <ele>2690</ele>
        <time>2016-07-21T08:37:54.234Z</time>
      </trkpt>
      <trkpt lat="44.72123" lon="5.81599">
        <ele>2656</ele>
        <time>2016-07-21T08:38:14.234Z</time>
      </trkpt>
      <trkpt lat="44.72118" lon="5.81597">
        <ele>2675</ele>
        <time>2016-07-21T08:38:24.234Z</time>
      </trkpt>
      <trkpt lat="44.72116" lon="5.816">
        <ele>2656</ele>
        <time>2016-07-21T08:38:33.234Z</time>
      </trkpt>
      <trkpt lat="44.72115" lon="5.81602">
        <ele>2656</ele>
        <time>2016-07-21T08:38:40.234Z</time>
      </trkpt>
      <trkpt lat="44.72111" lon="5.81594">
        <ele>2679.6</ele>
      </trkpt>
      <trkpt lat="44.72101" lon="5.8159">
        <ele>2671.9</ele>
        <time>2016-07-21T08:39:08.234Z</time>
      </trkpt>
      <trkpt lat="44.72094" lon="5.81609">
        <ele>2660.8</ele>
        <time>2016-07-21T08:39:35.234Z</time>
      </trkpt>
      <trkpt lat="44.72085" lon="5.81611">
        <ele>2654</ele>
        <time>2016-07-21T08:39:58.234Z</time>
      </trkpt>
      <trkpt lat="44.72079" lon="5.81616">
        <ele>2648</ele>
      </trkpt>
      <trkpt lat="44.72073" lon="5.81613">
        <ele>2642.5</ele>
        <time>2016-07-21T08:52:59.234Z</time>
      </trkpt>
      <trkpt lat="44.72067" lon="5.81618">
        <ele>2636.1</ele>
      </trkpt>
      <trkpt lat="44.72063" lon="5.81621">
        <ele>2632.1</ele>
      </trkpt>
      <trkpt lat="44.7206" lon="5.81624">
        <ele>2628</ele>
      </trkpt>
      <trkpt lat="44.72055" lon="5.81623">
        <ele>2624</ele>
      </trkpt>
      <trkpt lat="44.72048" lon="5.81619">
        <ele>2623</ele>
        <time>2016-07-21T08:55:00.234Z</time>
      </trkpt>
      <trkpt lat="44.72041" lon="5.81627">
        <ele>2595</ele>
        <time>2016-07-21T08:55:21.234Z</time>
      </trkpt>
      <trkpt lat="44.7204" lon="5.81624">
        <ele>2602</ele>
        <time>2016-07-21T08:55:26.234Z</time>
      </trkpt>
      <trkpt lat="44.72038" lon="5.81624">
        <ele>2602</ele>
        <time>2016-07-21T08:55:31.234Z</time>
      </trkpt>
      <trkpt lat="44.72036" lon="5.81627">
        <ele>2595</ele>
        <time>2016-07-21T08:55:58.234Z</time>
      </trkpt>
      <trkpt lat="44.72033" lon="5.81619">
        <ele>2602</ele>
        <time>2016-07-21T08:56:18.234Z</time>
      </trkpt>
      <trkpt lat="44.72037" lon="5.81605">
        <ele>2602</ele>
        <time>2016-07-21T08:56:44.234Z</time>
      </trkpt>
      <trkpt lat="44.72032" lon="5.81605">
        <ele>2602</ele>
        <time>2016-07-21T08:57:04.234Z</time>
      </trkpt>
      <trkpt lat="44.72029" lon="5.816">
        <ele>2602</ele>
        <time>2016-07-21T08:57:18.234Z</time>
      </trkpt>
      <trkpt lat="44.72026" lon="5.816">
        <ele>2602</ele>
        <time>2016-07-21T08:57:29.234Z</time>
      </trkpt>
      <trkpt lat="44.72018" lon="5.81601">
        <ele>2602</ele>
        <time>2016-07-21T09:00:46.234Z</time>
      </trkpt>
      <trkpt lat="44.72012" lon="5.81597">
        <ele>2582.3</ele>
        <time>2016-07-21T09:00:57.234Z</time>
      </trkpt>
      <trkpt lat="44.72005" lon="5.81599">
        <ele>2574.2</ele>
      </trkpt>
      <trkpt lat="44.71992" lon="5.8159">
        <ele>2563.7</ele>
      </trkpt>
      <trkpt lat="44.7198" lon="5.81589">
        <ele>2554.5</ele>
      </trkpt>
      <trkpt lat="44.71968" lon="5.81576">
        <ele>2548.5</ele>
      </trkpt>
      <trkpt lat="44.71963" lon="5.81567">
        <ele>2546.5</ele>
        <time>2016-07-21T09:05:01.234Z</time>
      </trkpt>
      <trkpt lat="44.7196" lon="5.81566">
        <ele>2562</ele>
        <time>2016-07-21T09:05:06.234Z</time>
      </trkpt>
      <trkpt lat="44.71929" lon="5.81562">
        <ele>2511</ele>
        <time>2016-07-21T09:06:16.234Z</time>
      </trkpt>
      <trkpt lat="44.71919" lon="5.81558">
        <ele>2511</ele>
        <time>2016-07-21T09:06:38.234Z</time>
      </trkpt>
      <trkpt lat="44.71906" lon="5.81554">
        <ele>2509.3</ele>
      </trkpt>
      <trkpt lat="44.71886" lon="5.81552">
        <ele>2495</ele>
        <time>2016-07-21T09:07:38.234Z</time>
      </trkpt>
      <trkpt lat="44.71883" lon="5.81554">
        <ele>2495</ele>
        <time>2016-07-21T09:07:43.234Z</time>
      </trkpt>
      <trkpt lat="44.71869" lon="5.8155">
        <ele>2481</ele>
        <time>2016-07-21T09:08:25.234Z</time>
      </trkpt>
      <trkpt lat="44.71852" lon="5.81532">
        <ele>2481</ele>
        <time>2016-07-21T09:08:56.234Z</time>
      </trkpt>
      <trkpt lat="44.71841" lon="5.81488">
        <ele>2457</ele>
        <time>2016-07-21T09:09:57.234Z</time>
      </trkpt>
      <trkpt lat="44.71822" lon="5.81489">
        <ele>2457</ele>
        <time>2016-07-21T09:10:31.234Z</time>
      </trkpt>
      <trkpt lat="44.71814" lon="5.81487">
        <ele>2436</ele>
        <time>2016-07-21T09:10:40.234Z</time>
      </trkpt>
      <trkpt lat="44.71815" lon="5.81489">
        <ele>2436</ele>
        <time>2016-07-21T09:10:49.234Z</time>
      </trkpt>
      <trkpt lat="44.71807" lon="5.81486">
        <ele>2436</ele>
        <time>2016-07-21T09:10:57.234Z</time>
      </trkpt>
      <trkpt lat="44.71798" lon="5.81488">
        <ele>2436</ele>
        <time>2016-07-21T09:11:08.234Z</time>
      </trkpt>
      <trkpt lat="44.71787" lon="5.81487">
        <ele>2420</ele>
        <time>2016-07-21T09:11:24.234Z</time>
      </trkpt>
      <trkpt lat="44.71785" lon="5.81481">
        <ele>2413</ele>
        <time>2016-07-21T09:11:42.234Z</time>
      </trkpt>
      <trkpt lat="44.71773" lon="5.81465">
        <ele>2413</ele>
        <time>2016-07-21T09:12:14.234Z</time>
      </trkpt>
      <trkpt lat="44.71768" lon="5.81461">
        <ele>2413</ele>
        <time>2016-07-21T09:12:31.234Z</time>
      </trkpt>
      <trkpt lat="44.7175" lon="5.81439">
        <ele>2398</ele>
        <time>2016-07-21T09:13:42.234Z</time>
      </trkpt>
      <trkpt lat="44.71746" lon="5.8144">
        <ele>2398</ele>
        <time>2016-07-21T09:14:00.234Z</time>
      </trkpt>
      <trkpt lat="44.71737" lon="5.81415">
        <ele>2397</ele>
        <time>2016-07-21T09:16:41.234Z</time>
      </trkpt>
      <trkpt lat="44.7172" lon="5.81408">
        <ele>2384</ele>
        <time>2016-07-21T09:17:17.234Z</time>
      </trkpt>
      <trkpt lat="44.71715" lon="5.81414">
        <ele>2384</ele>
        <time>2016-07-21T09:17:33.234Z</time>
      </trkpt>
      <trkpt lat="44.717" lon="5.81427">
        <ele>2375</ele>
        <time>2016-07-21T09:18:38.234Z</time>
      </trkpt>
      <trkpt lat="44.71687" lon="5.81434">
        <ele>2377</ele>
        <time>2016-07-21T09:19:11.234Z</time>
      </trkpt>
      <trkpt lat="44.71677" lon="5.81459">
        <ele>2371</ele>
        <time>2016-07-21T09:19:50.234Z</time>
      </trkpt>
      <trkpt lat="44.71657" lon="5.81469">
        <ele>2371</ele>
        <time>2016-07-21T09:20:28.234Z</time>
      </trkpt>
      <trkpt lat="44.71648" lon="5.81468">
        <ele>2360</ele>
        <time>2016-07-21T09:20:36.234Z</time>
      </trkpt>
      <trkpt lat="44.71636" lon="5.81473">
        <ele>2360</ele>
        <time>2016-07-21T09:21:15.234Z</time>
      </trkpt>
      <trkpt lat="44.71631" lon="5.81472">
        <ele>2360</ele>
        <time>2016-07-21T09:21:24.234Z</time>
      </trkpt>
      <trkpt lat="44.71615" lon="5.81479">
        <ele>2349</ele>
        <time>2016-07-21T09:21:46.234Z</time>
      </trkpt>
      <trkpt lat="44.71598" lon="5.8148">
        <ele>2349</ele>
        <time>2016-07-21T09:22:01.234Z</time>
      </trkpt>
      <trkpt lat="44.71594" lon="5.81484">
        <ele>2338</ele>
        <time>2016-07-21T09:22:05.234Z</time>
      </trkpt>
      <trkpt lat="44.71582" lon="5.81502">
        <ele>2336</ele>
        <time>2016-07-21T09:22:27.234Z</time>
      </trkpt>
      <trkpt lat="44.71574" lon="5.81506">
        <ele>2336</ele>
        <time>2016-07-21T09:22:39.234Z</time>
      </trkpt>
      <trkpt lat="44.7156" lon="5.81521">
        <ele>2323</ele>
        <time>2016-07-21T09:23:12.234Z</time>
      </trkpt>
      <trkpt lat="44.71558" lon="5.8154">
        <ele>2323</ele>
        <time>2016-07-21T09:23:33.234Z</time>
      </trkpt>
      <trkpt lat="44.7158" lon="5.81627">
        <ele>2309</ele>
        <time>2016-07-21T09:25:30.234Z</time>
      </trkpt>
      <trkpt lat="44.71584" lon="5.81641">
        <ele>2309</ele>
        <time>2016-07-21T09:25:53.234Z</time>
      </trkpt>
      <trkpt lat="44.71576" lon="5.81674">
        <ele>2302</ele>
        <time>2016-07-21T09:26:19.234Z</time>
      </trkpt>
      <trkpt lat="44.71571" lon="5.81687">
        <ele>2298</ele>
        <time>2016-07-21T09:26:34.234Z</time>
      </trkpt>
      <trkpt lat="44.71563" lon="5.81696">
        <ele>2280</ele>
        <time>2016-07-21T09:26:48.234Z</time>
      </trkpt>
      <trkpt lat="44.71559" lon="5.81708">
        <ele>2280</ele>
        <time>2016-07-21T09:27:09.234Z</time>
      </trkpt>
      <trkpt lat="44.71551" lon="5.81713">
        <ele>2280</ele>
        <time>2016-07-21T09:27:19.234Z</time>
      </trkpt>
      <trkpt lat="44.71543" lon="5.81727">
        <ele>2280</ele>
        <time>2016-07-21T09:27:34.234Z</time>
      </trkpt>
      <trkpt lat="44.71536" lon="5.81732">
        <ele>2270</ele>
        <time>2016-07-21T09:27:40.234Z</time>
      </trkpt>
      <trkpt lat="44.71534" lon="5.81739">
        <ele>2271</ele>
        <time>2016-07-21T09:27:49.234Z</time>
      </trkpt>
      <trkpt lat="44.71523" lon="5.81749">
        <ele>2271</ele>
        <time>2016-07-21T09:28:03.234Z</time>
      </trkpt>
      <trkpt lat="44.71514" lon="5.81766">
        <ele>2260</ele>
        <time>2016-07-21T09:28:19.234Z</time>
      </trkpt>
      <trkpt lat="44.71509" lon="5.8177">
        <ele>2260</ele>
        <time>2016-07-21T09:28:27.234Z</time>
      </trkpt>
      <trkpt lat="44.71499" lon="5.81789">
        <ele>2260</ele>
        <time>2016-07-21T09:28:56.234Z</time>
      </trkpt>
      <trkpt lat="44.71495" lon="5.81789">
        <ele>2260</ele>
        <time>2016-07-21T09:28:59.234Z</time>
      </trkpt>
      <trkpt lat="44.71493" lon="5.81786">
        <ele>2260</ele>
        <time>2016-07-21T09:29:03.234Z</time>
      </trkpt>
      <trkpt lat="44.71488" lon="5.81786">
        <ele>2260</ele>
        <time>2016-07-21T09:29:11.234Z</time>
      </trkpt>
      <trkpt lat="44.71484" lon="5.81791">
        <ele>2251</ele>
        <time>2016-07-21T09:29:16.234Z</time>
      </trkpt>
      <trkpt lat="44.71489" lon="5.81808">
        <ele>2261</ele>
        <time>2016-07-21T09:29:30.234Z</time>
      </trkpt>
      <trkpt lat="44.71491" lon="5.81809">
        <ele>2261</ele>
        <time>2016-07-21T09:29:32.234Z</time>
      </trkpt>
      <trkpt lat="44.71494" lon="5.81848">
        <ele>2257</ele>
        <time>2016-07-21T09:30:04.234Z</time>
      </trkpt>
      <trkpt lat="44.71491" lon="5.81859">
        <ele>2257</ele>
        <time>2016-07-21T09:30:17.234Z</time>
      </trkpt>
      <trkpt lat="44.71484" lon="5.8188">
        <ele>2243</ele>
        <time>2016-07-21T09:30:36.234Z</time>
      </trkpt>
      <trkpt lat="44.71481" lon="5.81882">
        <ele>2243</ele>
        <time>2016-07-21T09:30:39.234Z</time>
      </trkpt>
      <trkpt lat="44.71479" lon="5.8189">
        <ele>2243</ele>
        <time>2016-07-21T09:30:47.234Z</time>
      </trkpt>
      <trkpt lat="44.71471" lon="5.81899">
        <ele>2243</ele>
        <time>2016-07-21T09:31:02.234Z</time>
      </trkpt>
      <trkpt lat="44.71471" lon="5.81905">
        <ele>2242</ele>
        <time>2016-07-21T09:31:09.234Z</time>
      </trkpt>
      <trkpt lat="44.71465" lon="5.81916">
        <ele>2242</ele>
        <time>2016-07-21T09:31:23.234Z</time>
      </trkpt>
      <trkpt lat="44.71456" lon="5.81923">
        <ele>2226</ele>
        <time>2016-07-21T09:31:37.234Z</time>
      </trkpt>
      <trkpt lat="44.71442" lon="5.81922">
        <ele>2226</ele>
        <time>2016-07-21T09:31:58.234Z</time>
      </trkpt>
      <trkpt lat="44.7143" lon="5.8192">
        <ele>2211</ele>
        <time>2016-07-21T09:32:26.234Z</time>
      </trkpt>
      <trkpt lat="44.71408" lon="5.81908">
        <ele>2211</ele>
        <time>2016-07-21T09:33:00.234Z</time>
      </trkpt>
      <trkpt lat="44.71405" lon="5.81908">
        <ele>2211</ele>
        <time>2016-07-21T09:33:03.234Z</time>
      </trkpt>
      <trkpt lat="44.71395" lon="5.81899">
        <ele>2199</ele>
        <time>2016-07-21T09:33:15.234Z</time>
      </trkpt>
      <trkpt lat="44.71383" lon="5.81901">
        <ele>2199</ele>
        <time>2016-07-21T09:33:39.234Z</time>
      </trkpt>
      <trkpt lat="44.71378" lon="5.81913">
        <ele>2197</ele>
        <time>2016-07-21T09:33:52.234Z</time>
      </trkpt>
      <trkpt lat="44.71363" lon="5.81913">
        <ele>2188</ele>
        <time>2016-07-21T09:34:11.234Z</time>
      </trkpt>
      <trkpt lat="44.71358" lon="5.81909">
        <ele>2188</ele>
        <time>2016-07-21T09:34:18.234Z</time>
      </trkpt>
      <trkpt lat="44.71333" lon="5.81953">
        <ele>2175</ele>
        <time>2016-07-21T09:35:25.234Z</time>
      </trkpt>
      <trkpt lat="44.713" lon="5.81992">
        <ele>2161</ele>
        <time>2016-07-21T09:36:07.234Z</time>
      </trkpt>
      <trkpt lat="44.71294" lon="5.81994">
        <ele>2161</ele>
        <time>2016-07-21T09:36:17.234Z</time>
      </trkpt>
      <trkpt lat="44.71289" lon="5.81999">
        <ele>2153</ele>
        <time>2016-07-21T09:36:24.234Z</time>
      </trkpt>
      <trkpt lat="44.71278" lon="5.82005">
        <ele>2153</ele>
        <time>2016-07-21T09:36:48.234Z</time>
      </trkpt>
      <trkpt lat="44.71276" lon="5.8201">
        <ele>2153</ele>
        <time>2016-07-21T09:36:58.234Z</time>
      </trkpt>
      <trkpt lat="44.71271" lon="5.82013">
        <ele>2153</ele>
        <time>2016-07-21T09:37:06.234Z</time>
      </trkpt>
      <trkpt lat="44.71271" lon="5.82017">
        <ele>2148</ele>
        <time>2016-07-21T09:37:10.234Z</time>
      </trkpt>
      <trkpt lat="44.71247" lon="5.82045">
        <ele>2133</ele>
        <time>2016-07-21T09:38:04.234Z</time>
      </trkpt>
      <trkpt lat="44.71237" lon="5.82047">
        <ele>2133</ele>
        <time>2016-07-21T09:38:14.234Z</time>
      </trkpt>
      <trkpt lat="44.71211" lon="5.82083">
        <ele>2117</ele>
        <time>2016-07-21T09:39:19.234Z</time>
      </trkpt>
      <trkpt lat="44.71207" lon="5.82085">
        <ele>2113</ele>
        <time>2016-07-21T09:39:27.234Z</time>
      </trkpt>
      <trkpt lat="44.71207" lon="5.82087">
        <ele>2113</ele>
        <time>2016-07-21T09:39:31.234Z</time>
      </trkpt>
      <trkpt lat="44.71205" lon="5.82087">
        <ele>2113</ele>
        <time>2016-07-21T09:39:32.234Z</time>
      </trkpt>
      <trkpt lat="44.71203" lon="5.82093">
        <ele>2113</ele>
        <time>2016-07-21T09:39:39.234Z</time>
      </trkpt>
      <trkpt lat="44.71195" lon="5.82102">
        <ele>2107</ele>
        <time>2016-07-21T09:39:55.234Z</time>
      </trkpt>
      <trkpt lat="44.7117" lon="5.82111">
        <ele>2101.3</ele>
        <time>2016-07-21T09:40:13.234Z</time>
      </trkpt>
      <trkpt lat="44.71154" lon="5.82112">
        <ele>2098.8</ele>
      </trkpt>
      <trkpt lat="44.7114" lon="5.82132">
        <ele>2089.6</ele>
      </trkpt>
      <trkpt lat="44.71132" lon="5.82171">
        <ele>2075</ele>
      </trkpt>
      <trkpt lat="44.71127" lon="5.82208">
        <ele>2062.8</ele>
      </trkpt>
      <trkpt lat="44.71136" lon="5.82242">
        <ele>2052.1</ele>
      </trkpt>
      <trkpt lat="44.71145" lon="5.82271">
        <ele>2047.2</ele>
      </trkpt>
      <trkpt lat="44.71136" lon="5.82287">
        <ele>2039</ele>
        <time>2016-07-21T09:45:49.234Z</time>
      </trkpt>
      <trkpt lat="44.7113" lon="5.82288">
        <ele>2039</ele>
        <time>2016-07-21T09:45:58.234Z</time>
      </trkpt>
      <trkpt lat="44.71129" lon="5.82292">
        <ele>2033</ele>
        <time>2016-07-21T09:46:02.234Z</time>
      </trkpt>
      <trkpt lat="44.71116" lon="5.82299">
        <ele>2024</ele>
        <time>2016-07-21T09:46:40.234Z</time>
      </trkpt>
      <trkpt lat="44.71107" lon="5.82306">
        <ele>2024</ele>
        <time>2016-07-21T09:46:58.234Z</time>
      </trkpt>
      <trkpt lat="44.7108" lon="5.823">
        <ele>2007</ele>
      </trkpt>
      <trkpt lat="44.71065" lon="5.82308">
        <ele>1996.6</ele>
      </trkpt>
      <trkpt lat="44.7108" lon="5.82354">
        <ele>1984.3</ele>
      </trkpt>
      <trkpt lat="44.71071" lon="5.82355">
        <ele>1979.1</ele>
      </trkpt>
      <trkpt lat="44.71064" lon="5.82354">
        <ele>1976.3</ele>
      </trkpt>
      <trkpt lat="44.71067" lon="5.82374">
        <ele>1969.2</ele>
      </trkpt>
      <trkpt lat="44.71061" lon="5.82373">
        <ele>1967.1</ele>
      </trkpt>
      <trkpt lat="44.71075" lon="5.82417">
        <ele>1957.7</ele>
      </trkpt>
      <trkpt lat="44.7106" lon="5.82419">
        <ele>1949.7</ele>
      </trkpt>
      <trkpt lat="44.71049" lon="5.8243">
        <ele>1942.3</ele>
      </trkpt>
      <trkpt lat="44.71049" lon="5.82447">
        <ele>1936.9</ele>
      </trkpt>
      <trkpt lat="44.71042" lon="5.82443">
        <ele>1936.5</ele>
      </trkpt>
      <trkpt lat="44.71044" lon="5.82463">
        <ele>1929.6</ele>
      </trkpt>
      <trkpt lat="44.71029" lon="5.82481">
        <ele>1917.5</ele>
      </trkpt>
      <trkpt lat="44.71029" lon="5.82505">
        <ele>1910.5</ele>
      </trkpt>
      <trkpt lat="44.71017" lon="5.82515">
        <ele>1906</ele>
      </trkpt>
      <trkpt lat="44.71017" lon="5.82543">
        <ele>1899.6</ele>
        <time>2016-07-21T09:55:13.234Z</time>
      </trkpt>
      <trkpt lat="44.71014" lon="5.82549">
        <ele>1908</ele>
        <time>2016-07-21T09:55:24.234Z</time>
      </trkpt>
      <trkpt lat="44.71014" lon="5.82555">
        <ele>1908</ele>
        <time>2016-07-21T09:55:35.234Z</time>
      </trkpt>
      <trkpt lat="44.71" lon="5.82566">
        <ele>1890.4</ele>
        <time>2016-07-21T09:55:59.234Z</time>
      </trkpt>
      <trkpt lat="44.70992" lon="5.82594">
        <ele>1887</ele>
        <time>2016-07-21T09:56:33.234Z</time>
      </trkpt>
      <trkpt lat="44.70988" lon="5.82598">
        <ele>1885</ele>
        <time>2016-07-21T09:56:38.234Z</time>
      </trkpt>
      <trkpt lat="44.70983" lon="5.82623">
        <ele>1881</ele>
        <time>2016-07-21T09:57:06.234Z</time>
      </trkpt>
      <trkpt lat="44.70985" lon="5.82635">
        <ele>1876</ele>
        <time>2016-07-21T09:57:34.234Z</time>
      </trkpt>
      <trkpt lat="44.70984" lon="5.82668">
        <ele>1866</ele>
        <time>2016-07-21T09:58:47.234Z</time>
      </trkpt>
      <trkpt lat="44.70985" lon="5.82684">
        <ele>1845</ele>
        <time>2016-07-21T09:59:19.234Z</time>
      </trkpt>
      <trkpt lat="44.70983" lon="5.82703">
        <ele>1845</ele>
        <time>2016-07-21T10:00:01.234Z</time>
      </trkpt>
      <trkpt lat="44.70975" lon="5.82719">
        <ele>1837</ele>
        <time>2016-07-21T10:00:31.234Z</time>
      </trkpt>
      <trkpt lat="44.70964" lon="5.82728">
        <ele>1837</ele>
        <time>2016-07-21T10:00:45.234Z</time>
      </trkpt>
      <trkpt lat="44.7096" lon="5.82734">
        <ele>1837</ele>
        <time>2016-07-21T10:00:57.234Z</time>
      </trkpt>
      <trkpt lat="44.7096" lon="5.82744">
        <ele>1830</ele>
        <time>2016-07-21T10:01:03.234Z</time>
      </trkpt>
      <trkpt lat="44.70957" lon="5.82749">
        <ele>1828</ele>
        <time>2016-07-21T10:01:11.234Z</time>
      </trkpt>
      <trkpt lat="44.70955" lon="5.82766">
        <ele>1821</ele>
        <time>2016-07-21T10:01:26.234Z</time>
      </trkpt>
      <trkpt lat="44.70951" lon="5.82772">
        <ele>1821</ele>
        <time>2016-07-21T10:01:33.234Z</time>
      </trkpt>
      <trkpt lat="44.70949" lon="5.82787">
        <ele>1821</ele>
        <time>2016-07-21T10:01:50.234Z</time>
      </trkpt>
      <trkpt lat="44.70951" lon="5.82793">
        <ele>1814</ele>
        <time>2016-07-21T10:01:54.234Z</time>
      </trkpt>
      <trkpt lat="44.7095" lon="5.82801">
        <ele>1814</ele>
        <time>2016-07-21T10:02:02.234Z</time>
      </trkpt>
      <trkpt lat="44.70957" lon="5.82814">
        <ele>1814</ele>
        <time>2016-07-21T10:02:17.234Z</time>
      </trkpt>
      <trkpt lat="44.70962" lon="5.82829">
        <ele>1811</ele>
        <time>2016-07-21T10:02:37.234Z</time>
      </trkpt>
      <trkpt lat="44.70963" lon="5.82845">
        <ele>1811</ele>
        <time>2016-07-21T10:02:55.234Z</time>
      </trkpt>
      <trkpt lat="44.70961" lon="5.82861">
        <ele>1808</ele>
        <time>2016-07-21T10:03:43.234Z</time>
      </trkpt>
      <trkpt lat="44.70952" lon="5.82892">
        <ele>1803</ele>
        <time>2016-07-21T10:04:16.234Z</time>
      </trkpt>
      <trkpt lat="44.70953" lon="5.82915">
        <ele>1801</ele>
        <time>2016-07-21T10:04:42.234Z</time>
      </trkpt>
      <trkpt lat="44.70956" lon="5.82956">
        <ele>1798</ele>
        <time>2016-07-21T10:05:21.234Z</time>
      </trkpt>
      <trkpt lat="44.70957" lon="5.82978">
        <ele>1796</ele>
        <time>2016-07-21T10:05:44.234Z</time>
      </trkpt>
      <trkpt lat="44.70959" lon="5.82999">
        <ele>1796</ele>
        <time>2016-07-21T10:06:06.234Z</time>
      </trkpt>
      <trkpt lat="44.70962" lon="5.83017">
        <ele>1793</ele>
        <time>2016-07-21T10:06:22.234Z</time>
      </trkpt>
      <trkpt lat="44.7096" lon="5.83051">
        <ele>1793</ele>
        <time>2016-07-21T10:06:53.234Z</time>
      </trkpt>
      <trkpt lat="44.70955" lon="5.83068">
        <ele>1789</ele>
        <time>2016-07-21T10:07:11.234Z</time>
      </trkpt>
      <trkpt lat="44.70952" lon="5.83096">
        <ele>1788</ele>
        <time>2016-07-21T10:07:36.234Z</time>
      </trkpt>
      <trkpt lat="44.70952" lon="5.83141">
        <ele>1787</ele>
        <time>2016-07-21T10:08:26.234Z</time>
      </trkpt>
      <trkpt lat="44.70958" lon="5.83171">
        <ele>1788</ele>
        <time>2016-07-21T10:09:00.234Z</time>
      </trkpt>
      <trkpt lat="44.7095" lon="5.8321">
        <ele>1786</ele>
        <time>2016-07-21T10:09:36.234Z</time>
      </trkpt>
      <trkpt lat="44.7095" lon="5.83243">
        <ele>1785</ele>
        <time>2016-07-21T10:10:15.234Z</time>
      </trkpt>
      <trkpt lat="44.70943" lon="5.83291">
        <ele>1785</ele>
        <time>2016-07-21T10:11:00.234Z</time>
      </trkpt>
      <trkpt lat="44.70938" lon="5.83324">
        <ele>1779</ele>
        <time>2016-07-21T10:11:28.234Z</time>
      </trkpt>
      <trkpt lat="44.70939" lon="5.83344">
        <ele>1779</ele>
        <time>2016-07-21T10:11:39.234Z</time>
      </trkpt>
      <trkpt lat="44.70927" lon="5.83376">
        <ele>1774</ele>
        <time>2016-07-21T10:12:05.234Z</time>
      </trkpt>
      <trkpt lat="44.70924" lon="5.8341">
        <ele>1773</ele>
        <time>2016-07-21T10:12:32.234Z</time>
      </trkpt>
      <trkpt lat="44.70921" lon="5.83419">
        <ele>1773</ele>
        <time>2016-07-21T10:12:36.234Z</time>
      </trkpt>
      <trkpt lat="44.70913" lon="5.8343">
        <ele>1773</ele>
        <time>2016-07-21T10:12:47.234Z</time>
      </trkpt>
      <trkpt lat="44.70892" lon="5.83488">
        <ele>1770</ele>
        <time>2016-07-21T10:13:36.234Z</time>
      </trkpt>
      <trkpt lat="44.70882" lon="5.83508">
        <ele>1770</ele>
        <time>2016-07-21T10:13:55.234Z</time>
      </trkpt>
      <trkpt lat="44.70881" lon="5.83517">
        <ele>1765</ele>
        <time>2016-07-21T10:14:02.234Z</time>
      </trkpt>
      <trkpt lat="44.70863" lon="5.83574">
        <ele>1767</ele>
        <time>2016-07-21T10:14:48.234Z</time>
      </trkpt>
      <trkpt lat="44.70839" lon="5.83614">
        <ele>1772</ele>
        <time>2016-07-21T10:15:21.234Z</time>
      </trkpt>
      <trkpt lat="44.7083" lon="5.83642">
        <ele>1768</ele>
        <time>2016-07-21T10:15:46.234Z</time>
      </trkpt>
      <trkpt lat="44.70798" lon="5.83699">
        <ele>1774</ele>
        <time>2016-07-21T10:16:36.234Z</time>
      </trkpt>
      <trkpt lat="44.70776" lon="5.83762">
        <ele>1767</ele>
        <time>2016-07-21T10:17:25.234Z</time>
      </trkpt>
      <trkpt lat="44.7076" lon="5.83791">
        <ele>1775</ele>
        <time>2016-07-21T10:17:50.234Z</time>
      </trkpt>
      <trkpt lat="44.70741" lon="5.83848">
        <ele>1767</ele>
        <time>2016-07-21T10:18:36.234Z</time>
      </trkpt>
      <trkpt lat="44.70734" lon="5.83859">
        <ele>1781</ele>
        <time>2016-07-21T10:18:48.234Z</time>
      </trkpt>
      <trkpt lat="44.70728" lon="5.83874">
        <ele>1781</ele>
        <time>2016-07-21T10:19:05.234Z</time>
      </trkpt>
      <trkpt lat="44.70723" lon="5.83908">
        <ele>1779</ele>
        <time>2016-07-21T10:19:28.234Z</time>
      </trkpt>
      <trkpt lat="44.70726" lon="5.83924">
        <ele>1779</ele>
        <time>2016-07-21T10:19:39.234Z</time>
      </trkpt>
      <trkpt lat="44.70725" lon="5.83932">
        <ele>1779</ele>
        <time>2016-07-21T10:19:44.234Z</time>
      </trkpt>
      <trkpt lat="44.70736" lon="5.83971">
        <ele>1785</ele>
        <time>2016-07-21T10:20:15.234Z</time>
      </trkpt>
      <trkpt lat="44.70735" lon="5.84008">
        <ele>1791</ele>
        <time>2016-07-21T10:20:44.234Z</time>
      </trkpt>
      <trkpt lat="44.70737" lon="5.84015">
        <ele>1767</ele>
        <time>2016-07-21T10:20:51.234Z</time>
      </trkpt>
      <trkpt lat="44.70732" lon="5.84029">
        <ele>1797</ele>
        <time>2016-07-21T10:21:07.234Z</time>
      </trkpt>
      <trkpt lat="44.70731" lon="5.84044">
        <ele>1802</ele>
        <time>2016-07-21T10:21:48.234Z</time>
      </trkpt>
      <trkpt lat="44.70724" lon="5.84036">
        <ele>1797</ele>
        <time>2016-07-21T10:21:59.234Z</time>
      </trkpt>
      <trkpt lat="44.70724" lon="5.84043">
        <ele>1802</ele>
        <time>2016-07-21T10:22:05.234Z</time>
      </trkpt>
      <trkpt lat="44.70703" lon="5.8407">
        <ele>1808</ele>
        <time>2016-07-21T10:22:37.234Z</time>
      </trkpt>
      <trkpt lat="44.70697" lon="5.8407">
        <ele>1808</ele>
        <time>2016-07-21T10:22:43.234Z</time>
      </trkpt>
      <trkpt lat="44.7069" lon="5.84076">
        <ele>1808</ele>
        <time>2016-07-21T10:22:52.234Z</time>
      </trkpt>
      <trkpt lat="44.70685" lon="5.84076">
        <ele>1808</ele>
        <time>2016-07-21T10:22:59.234Z</time>
      </trkpt>
      <trkpt lat="44.70683" lon="5.84081">
        <ele>1808</ele>
        <time>2016-07-21T10:23:07.234Z</time>
      </trkpt>
      <trkpt lat="44.70695" lon="5.84093">
        <ele>1808</ele>
        <time>2016-07-21T10:23:29.234Z</time>
      </trkpt>
      <trkpt lat="44.70696" lon="5.84105">
        <ele>1806</ele>
        <time>2016-07-21T10:23:39.234Z</time>
      </trkpt>
      <trkpt lat="44.7069" lon="5.84118">
        <ele>1806</ele>
        <time>2016-07-21T10:23:54.234Z</time>
      </trkpt>
      <trkpt lat="44.70683" lon="5.84126">
        <ele>1805</ele>
        <time>2016-07-21T10:24:09.234Z</time>
      </trkpt>
      <trkpt lat="44.7066" lon="5.84131">
        <ele>1812</ele>
        <time>2016-07-21T10:24:37.234Z</time>
      </trkpt>
      <trkpt lat="44.70636" lon="5.84144">
        <ele>1811</ele>
        <time>2016-07-21T10:25:07.234Z</time>
      </trkpt>
      <trkpt lat="44.70624" lon="5.84162">
        <ele>1811</ele>
        <time>2016-07-21T10:25:22.234Z</time>
      </trkpt>
      <trkpt lat="44.70617" lon="5.84169">
        <ele>1811</ele>
        <time>2016-07-21T10:25:28.234Z</time>
      </trkpt>
      <trkpt lat="44.70599" lon="5.84178">
        <ele>1811</ele>
        <time>2016-07-21T10:25:55.234Z</time>
      </trkpt>
      <trkpt lat="44.70573" lon="5.84184">
        <ele>1812</ele>
        <time>2016-07-21T10:26:30.234Z</time>
      </trkpt>
      <trkpt lat="44.70554" lon="5.84197">
        <ele>1812</ele>
        <time>2016-07-21T10:26:52.234Z</time>
      </trkpt>
      <trkpt lat="44.70545" lon="5.84207">
        <ele>1812</ele>
        <time>2016-07-21T10:27:10.234Z</time>
      </trkpt>
      <trkpt lat="44.70508" lon="5.84228">
        <ele>1811</ele>
        <time>2016-07-21T10:27:56.234Z</time>
      </trkpt>
      <trkpt lat="44.70497" lon="5.84238">
        <ele>1807</ele>
        <time>2016-07-21T10:28:08.234Z</time>
      </trkpt>
      <trkpt lat="44.70487" lon="5.84244">
        <ele>1807</ele>
        <time>2016-07-21T10:28:18.234Z</time>
      </trkpt>
      <trkpt lat="44.70469" lon="5.84267">
        <ele>1803</ele>
        <time>2016-07-21T10:28:49.234Z</time>
      </trkpt>
      <trkpt lat="44.70459" lon="5.84276">
        <ele>1803</ele>
        <time>2016-07-21T10:29:06.234Z</time>
      </trkpt>
      <trkpt lat="44.70438" lon="5.84287">
        <ele>1802</ele>
        <time>2016-07-21T10:29:37.234Z</time>
      </trkpt>
      <trkpt lat="44.70419" lon="5.84292">
        <ele>1800</ele>
        <time>2016-07-21T10:30:18.234Z</time>
      </trkpt>
      <trkpt lat="44.70409" lon="5.84301">
        <ele>1800</ele>
        <time>2016-07-21T10:30:38.234Z</time>
      </trkpt>
      <trkpt lat="44.70399" lon="5.8433">
        <ele>1798</ele>
        <time>2016-07-21T10:31:19.234Z</time>
      </trkpt>
      <trkpt lat="44.70391" lon="5.84369">
        <ele>1798</ele>
        <time>2016-07-21T10:31:54.234Z</time>
      </trkpt>
      <trkpt lat="44.70393" lon="5.84378">
        <ele>1797.9</ele>
        <time>2016-07-21T10:31:59.234Z</time>
      </trkpt>
      <trkpt lat="44.70389" lon="5.84395">
        <ele>1797.5</ele>
        <time>2016-07-21T10:32:13.234Z</time>
      </trkpt>
      <trkpt lat="44.70381" lon="5.8442">
        <ele>1798</ele>
        <time>2016-07-21T10:32:43.234Z</time>
      </trkpt>
      <trkpt lat="44.70375" lon="5.84444">
        <ele>1798</ele>
        <time>2016-07-21T10:33:03.234Z</time>
      </trkpt>
      <trkpt lat="44.70371" lon="5.84457">
        <ele>1797</ele>
        <time>2016-07-21T10:33:30.234Z</time>
      </trkpt>
      <trkpt lat="44.70362" lon="5.84498">
        <ele>1793.3</ele>
        <time>2016-07-21T10:34:14.234Z</time>
      </trkpt>
      <trkpt lat="44.7035" lon="5.84529">
        <ele>1793</ele>
        <time>2016-07-21T10:34:40.234Z</time>
      </trkpt>
      <trkpt lat="44.70348" lon="5.84553">
        <ele>1787</ele>
        <time>2016-07-21T10:34:59.234Z</time>
      </trkpt>
      <trkpt lat="44.70344" lon="5.84568">
        <ele>1789</ele>
        <time>2016-07-21T10:35:10.234Z</time>
      </trkpt>
      <trkpt lat="44.70341" lon="5.84574">
        <ele>1785</ele>
        <time>2016-07-21T10:35:17.234Z</time>
      </trkpt>
      <trkpt lat="44.70337" lon="5.8458">
        <ele>1785</ele>
        <time>2016-07-21T10:35:23.234Z</time>
      </trkpt>
      <trkpt lat="44.70328" lon="5.84593">
        <ele>1785</ele>
        <time>2016-07-21T10:35:35.234Z</time>
      </trkpt>
      <trkpt lat="44.70317" lon="5.84621">
        <ele>1784</ele>
        <time>2016-07-21T10:36:03.234Z</time>
      </trkpt>
      <trkpt lat="44.70306" lon="5.84669">
        <ele>1771</ele>
        <time>2016-07-21T10:36:43.234Z</time>
      </trkpt>
      <trkpt lat="44.70299" lon="5.84682">
        <ele>1764</ele>
        <time>2016-07-21T10:36:53.234Z</time>
      </trkpt>
      <trkpt lat="44.70278" lon="5.84694">
        <ele>1767</ele>
        <time>2016-07-21T10:37:17.234Z</time>
      </trkpt>
      <trkpt lat="44.70263" lon="5.84706">
        <ele>1770</ele>
        <time>2016-07-21T10:37:33.234Z</time>
      </trkpt>
      <trkpt lat="44.70247" lon="5.84751">
        <ele>1754</ele>
        <time>2016-07-21T10:38:09.234Z</time>
      </trkpt>
      <trkpt lat="44.7024" lon="5.84762">
        <ele>1754</ele>
        <time>2016-07-21T10:38:20.234Z</time>
      </trkpt>
      <trkpt lat="44.70235" lon="5.84766">
        <ele>1751</ele>
        <time>2016-07-21T10:38:25.234Z</time>
      </trkpt>
      <trkpt lat="44.70215" lon="5.84791">
        <ele>1743.3</ele>
      </trkpt>
      <trkpt lat="44.70202" lon="5.8481">
        <ele>1738.1</ele>
      </trkpt>
      <trkpt lat="44.70192" lon="5.84825">
        <ele>1734</ele>
      </trkpt>
      <trkpt lat="44.70184" lon="5.84834">
        <ele>1731.9</ele>
      </trkpt>
      <trkpt lat="44.70175" lon="5.84845">
        <ele>1730.9</ele>
      </trkpt>
      <trkpt lat="44.70182" lon="5.84883">
        <ele>1724.7</ele>
      </trkpt>
      <trkpt lat="44.70185" lon="5.84901">
        <ele>1723.5</ele>
      </trkpt>
      <trkpt lat="44.70182" lon="5.84927">
        <ele>1722</ele>
        <time>2016-07-21T10:44:20.234Z</time>
      </trkpt>
      <trkpt lat="44.7018" lon="5.84934">
        <ele>1716</ele>
        <time>2016-07-21T10:44:42.234Z</time>
      </trkpt>
      <trkpt lat="44.7018" lon="5.84941">
        <ele>1716</ele>
        <time>2016-07-21T10:44:50.234Z</time>
      </trkpt>
      <trkpt lat="44.70183" lon="5.84943">
        <ele>1720</ele>
        <time>2016-07-21T10:44:53.234Z</time>
      </trkpt>
      <trkpt lat="44.70186" lon="5.84965">
        <ele>1717</ele>
        <time>2016-07-21T10:45:12.234Z</time>
      </trkpt>
      <trkpt lat="44.70183" lon="5.84979">
        <ele>1717</ele>
        <time>2016-07-21T10:45:27.234Z</time>
      </trkpt>
      <trkpt lat="44.70184" lon="5.8501">
        <ele>1713</ele>
        <time>2016-07-21T10:45:52.234Z</time>
      </trkpt>
      <trkpt lat="44.70181" lon="5.8504">
        <ele>1709</ele>
        <time>2016-07-21T10:46:17.234Z</time>
      </trkpt>
      <trkpt lat="44.70171" lon="5.85082">
        <ele>1707</ele>
        <time>2016-07-21T10:46:59.234Z</time>
      </trkpt>
      <trkpt lat="44.70168" lon="5.85085">
        <ele>1707</ele>
        <time>2016-07-21T10:47:02.234Z</time>
      </trkpt>
      <trkpt lat="44.70164" lon="5.85102">
        <ele>1703</ele>
        <time>2016-07-21T10:47:15.234Z</time>
      </trkpt>
      <trkpt lat="44.70142" lon="5.85129">
        <ele>1702</ele>
        <time>2016-07-21T10:48:03.234Z</time>
      </trkpt>
      <trkpt lat="44.70134" lon="5.85143">
        <ele>1702</ele>
        <time>2016-07-21T10:48:17.234Z</time>
      </trkpt>
      <trkpt lat="44.70132" lon="5.85152">
        <ele>1702</ele>
        <time>2016-07-21T10:48:31.234Z</time>
      </trkpt>
      <trkpt lat="44.70129" lon="5.85154">
        <ele>1694</ele>
        <time>2016-07-21T10:48:33.234Z</time>
      </trkpt>
      <trkpt lat="44.70133" lon="5.85167">
        <ele>1694</ele>
        <time>2016-07-21T10:48:55.234Z</time>
      </trkpt>
      <trkpt lat="44.70127" lon="5.85176">
        <ele>1694</ele>
        <time>2016-07-21T10:49:20.234Z</time>
      </trkpt>
      <trkpt lat="44.70121" lon="5.85181">
        <ele>1685</ele>
        <time>2016-07-21T10:49:29.234Z</time>
      </trkpt>
      <trkpt lat="44.70115" lon="5.85181">
        <ele>1685</ele>
        <time>2016-07-21T10:49:37.234Z</time>
      </trkpt>
      <trkpt lat="44.70113" lon="5.85183">
        <ele>1685</ele>
        <time>2016-07-21T10:49:42.234Z</time>
      </trkpt>
      <trkpt lat="44.70105" lon="5.85191">
        <ele>1685</ele>
        <time>2016-07-21T10:49:53.234Z</time>
      </trkpt>
      <trkpt lat="44.70096" lon="5.85196">
        <ele>1683</ele>
        <time>2016-07-21T10:50:08.234Z</time>
      </trkpt>
      <trkpt lat="44.70091" lon="5.85201">
        <ele>1683</ele>
        <time>2016-07-21T10:50:15.234Z</time>
      </trkpt>
      <trkpt lat="44.70088" lon="5.85208">
        <ele>1683</ele>
        <time>2016-07-21T10:50:20.234Z</time>
      </trkpt>
      <trkpt lat="44.70045" lon="5.8522">
        <ele>1671</ele>
        <time>2016-07-21T10:53:07.234Z</time>
      </trkpt>
      <trkpt lat="44.70033" lon="5.8522">
        <ele>1666</ele>
        <time>2016-07-21T10:53:27.234Z</time>
      </trkpt>
      <trkpt lat="44.70019" lon="5.85229">
        <ele>1666</ele>
        <time>2016-07-21T10:53:44.234Z</time>
      </trkpt>
      <trkpt lat="44.70011" lon="5.85239">
        <ele>1659</ele>
        <time>2016-07-21T10:53:55.234Z</time>
      </trkpt>
      <trkpt lat="44.69995" lon="5.85243">
        <ele>1659</ele>
        <time>2016-07-21T10:54:22.234Z</time>
      </trkpt>
      <trkpt lat="44.69991" lon="5.85239">
        <ele>1659</ele>
        <time>2016-07-21T10:54:28.234Z</time>
      </trkpt>
      <trkpt lat="44.6998" lon="5.85244">
        <ele>1657</ele>
        <time>2016-07-21T10:54:39.234Z</time>
      </trkpt>
      <trkpt lat="44.69976" lon="5.85248">
        <ele>1657</ele>
        <time>2016-07-21T10:54:52.234Z</time>
      </trkpt>
      <trkpt lat="44.69972" lon="5.85258">
        <ele>1657</ele>
        <time>2016-07-21T10:55:01.234Z</time>
      </trkpt>
      <trkpt lat="44.69958" lon="5.85266">
        <ele>1652</ele>
        <time>2016-07-21T10:55:24.234Z</time>
      </trkpt>
      <trkpt lat="44.69952" lon="5.85276">
        <ele>1652</ele>
        <time>2016-07-21T10:55:37.234Z</time>
      </trkpt>
      <trkpt lat="44.69947" lon="5.85298">
        <ele>1646</ele>
        <time>2016-07-21T10:55:57.234Z</time>
      </trkpt>
      <trkpt lat="44.69945" lon="5.85353">
        <ele>1636</ele>
        <time>2016-07-21T10:56:48.234Z</time>
      </trkpt>
      <trkpt lat="44.69958" lon="5.85376">
        <ele>1632</ele>
        <time>2016-07-21T10:57:15.234Z</time>
      </trkpt>
      <trkpt lat="44.69974" lon="5.85424">
        <ele>1625</ele>
        <time>2016-07-21T10:58:25.234Z</time>
      </trkpt>
      <trkpt lat="44.69971" lon="5.85453">
        <ele>1622</ele>
        <time>2016-07-21T10:58:58.234Z</time>
      </trkpt>
      <trkpt lat="44.69969" lon="5.85474">
        <ele>1619</ele>
        <time>2016-07-21T10:59:37.234Z</time>
      </trkpt>
      <trkpt lat="44.6998" lon="5.85506">
        <ele>1614</ele>
        <time>2016-07-21T11:00:07.234Z</time>
      </trkpt>
      <trkpt lat="44.69982" lon="5.8552">
        <ele>1611</ele>
        <time>2016-07-21T11:00:22.234Z</time>
      </trkpt>
      <trkpt lat="44.69981" lon="5.85533">
        <ele>1611</ele>
        <time>2016-07-21T11:00:36.234Z</time>
      </trkpt>
      <trkpt lat="44.69986" lon="5.85563">
        <ele>1606</ele>
        <time>2016-07-21T11:01:04.234Z</time>
      </trkpt>
      <trkpt lat="44.69994" lon="5.85605">
        <ele>1600</ele>
        <time>2016-07-21T11:01:48.234Z</time>
      </trkpt>
      <trkpt lat="44.69995" lon="5.85631">
        <ele>1596</ele>
        <time>2016-07-21T11:02:11.234Z</time>
      </trkpt>
      <trkpt lat="44.69998" lon="5.85648">
        <ele>1596</ele>
        <time>2016-07-21T11:02:23.234Z</time>
      </trkpt>
      <trkpt lat="44.69998" lon="5.85685">
        <ele>1582</ele>
        <time>2016-07-21T11:02:56.234Z</time>
      </trkpt>
      <trkpt lat="44.70004" lon="5.85701">
        <ele>1582</ele>
        <time>2016-07-21T11:03:25.234Z</time>
      </trkpt>
      <trkpt lat="44.70008" lon="5.85736">
        <ele>1577</ele>
        <time>2016-07-21T11:04:08.234Z</time>
      </trkpt>
      <trkpt lat="44.70005" lon="5.85757">
        <ele>1572</ele>
        <time>2016-07-21T11:04:29.234Z</time>
      </trkpt>
      <trkpt lat="44.70002" lon="5.85771">
        <ele>1565</ele>
        <time>2016-07-21T11:04:46.234Z</time>
      </trkpt>
      <trkpt lat="44.69999" lon="5.85784">
        <ele>1565</ele>
        <time>2016-07-21T11:04:58.234Z</time>
      </trkpt>
      <trkpt lat="44.69992" lon="5.85799">
        <ele>1560</ele>
        <time>2016-07-21T11:05:17.234Z</time>
      </trkpt>
      <trkpt lat="44.6998" lon="5.85819">
        <ele>1558</ele>
        <time>2016-07-21T11:05:54.234Z</time>
      </trkpt>
      <trkpt lat="44.69982" lon="5.85827">
        <ele>1551</ele>
        <time>2016-07-21T11:06:01.234Z</time>
      </trkpt>
      <trkpt lat="44.6999" lon="5.85857">
        <ele>1553</ele>
        <time>2016-07-21T11:06:35.234Z</time>
      </trkpt>
      <trkpt lat="44.69992" lon="5.85892">
        <ele>1550</ele>
        <time>2016-07-21T11:06:54.234Z</time>
      </trkpt>
      <trkpt lat="44.69986" lon="5.85907">
        <ele>1547</ele>
        <time>2016-07-21T11:07:07.234Z</time>
      </trkpt>
      <trkpt lat="44.69984" lon="5.85921">
        <ele>1542</ele>
        <time>2016-07-21T11:07:23.234Z</time>
      </trkpt>
      <trkpt lat="44.69971" lon="5.85948">
        <ele>1540</ele>
        <time>2016-07-21T11:08:01.234Z</time>
      </trkpt>
      <trkpt lat="44.69961" lon="5.8597">
        <ele>1538</ele>
        <time>2016-07-21T11:08:22.234Z</time>
      </trkpt>
      <trkpt lat="44.69952" lon="5.85976">
        <ele>1532</ele>
        <time>2016-07-21T11:08:39.234Z</time>
      </trkpt>
      <trkpt lat="44.69927" lon="5.85988">
        <ele>1521</ele>
        <time>2016-07-21T11:09:23.234Z</time>
      </trkpt>
      <trkpt lat="44.69904" lon="5.86014">
        <ele>1518</ele>
        <time>2016-07-21T11:10:04.234Z</time>
      </trkpt>
      <trkpt lat="44.69897" lon="5.86017">
        <ele>1512</ele>
        <time>2016-07-21T11:10:32.234Z</time>
      </trkpt>
      <trkpt lat="44.69892" lon="5.86019">
        <ele>1512</ele>
        <time>2016-07-21T11:10:40.234Z</time>
      </trkpt>
      <trkpt lat="44.69888" lon="5.86023">
        <ele>1512</ele>
        <time>2016-07-21T11:10:47.234Z</time>
      </trkpt>
      <trkpt lat="44.69874" lon="5.86034">
        <ele>1507</ele>
        <time>2016-07-21T11:11:23.234Z</time>
      </trkpt>
      <trkpt lat="44.6987" lon="5.86035">
        <ele>1507</ele>
        <time>2016-07-21T11:11:26.234Z</time>
      </trkpt>
      <trkpt lat="44.69866" lon="5.8604">
        <ele>1507</ele>
        <time>2016-07-21T11:11:35.234Z</time>
      </trkpt>
      <trkpt lat="44.69857" lon="5.86045">
        <ele>1505</ele>
        <time>2016-07-21T11:11:50.234Z</time>
      </trkpt>
      <trkpt lat="44.69853" lon="5.86044">
        <ele>1505</ele>
        <time>2016-07-21T11:11:58.234Z</time>
      </trkpt>
      <trkpt lat="44.69851" lon="5.86045">
        <ele>1505</ele>
        <time>2016-07-21T11:12:03.234Z</time>
      </trkpt>
      <trkpt lat="44.69841" lon="5.8604">
        <ele>1505</ele>
        <time>2016-07-21T11:12:19.234Z</time>
      </trkpt>
      <trkpt lat="44.69828" lon="5.86043">
        <ele>1501</ele>
        <time>2016-07-21T11:12:36.234Z</time>
      </trkpt>
      <trkpt lat="44.69824" lon="5.86051">
        <ele>1501</ele>
        <time>2016-07-21T11:12:47.234Z</time>
      </trkpt>
      <trkpt lat="44.69826" lon="5.86054">
        <ele>1501</ele>
        <time>2016-07-21T11:12:56.234Z</time>
      </trkpt>
      <trkpt lat="44.69821" lon="5.8607">
        <ele>1496</ele>
        <time>2016-07-21T11:13:13.234Z</time>
      </trkpt>
      <trkpt lat="44.69821" lon="5.86086">
        <ele>1496</ele>
        <time>2016-07-21T11:13:32.234Z</time>
      </trkpt>
      <trkpt lat="44.69813" lon="5.86105">
        <ele>1489</ele>
        <time>2016-07-21T11:13:59.234Z</time>
      </trkpt>
      <trkpt lat="44.69809" lon="5.86118">
        <ele>1489</ele>
        <time>2016-07-21T11:14:09.234Z</time>
      </trkpt>
      <trkpt lat="44.69799" lon="5.86132">
        <ele>1488</ele>
        <time>2016-07-21T11:14:35.234Z</time>
      </trkpt>
      <trkpt lat="44.69788" lon="5.86149">
        <ele>1490</ele>
        <time>2016-07-21T11:14:58.234Z</time>
      </trkpt>
      <trkpt lat="44.69783" lon="5.86179">
        <ele>1488</ele>
        <time>2016-07-21T11:15:24.234Z</time>
      </trkpt>
      <trkpt lat="44.69784" lon="5.86187">
        <ele>1483</ele>
        <time>2016-07-21T11:15:30.234Z</time>
      </trkpt>
      <trkpt lat="44.69783" lon="5.86201">
        <ele>1483</ele>
        <time>2016-07-21T11:15:43.234Z</time>
      </trkpt>
      <trkpt lat="44.69777" lon="5.86226">
        <ele>1475</ele>
        <time>2016-07-21T11:16:18.234Z</time>
      </trkpt>
      <trkpt lat="44.69771" lon="5.86253">
        <ele>1468</ele>
        <time>2016-07-21T11:16:49.234Z</time>
      </trkpt>
      <trkpt lat="44.69771" lon="5.86264">
        <ele>1468</ele>
        <time>2016-07-21T11:17:07.234Z</time>
      </trkpt>
      <trkpt lat="44.69771" lon="5.86267">
        <ele>1463</ele>
        <time>2016-07-21T11:17:14.234Z</time>
      </trkpt>
      <trkpt lat="44.69764" lon="5.86286">
        <ele>1458</ele>
        <time>2016-07-21T11:17:57.234Z</time>
      </trkpt>
      <trkpt lat="44.69756" lon="5.86299">
        <ele>1450</ele>
        <time>2016-07-21T11:18:13.234Z</time>
      </trkpt>
      <trkpt lat="44.69751" lon="5.86312">
        <ele>1450</ele>
        <time>2016-07-21T11:18:45.234Z</time>
      </trkpt>
      <trkpt lat="44.69748" lon="5.86323">
        <ele>1442</ele>
        <time>2016-07-21T11:19:00.234Z</time>
      </trkpt>
      <trkpt lat="44.69746" lon="5.8633">
        <ele>1442</ele>
        <time>2016-07-21T11:19:07.234Z</time>
      </trkpt>
      <trkpt lat="44.69739" lon="5.86339">
        <ele>1442</ele>
        <time>2016-07-21T11:19:22.234Z</time>
      </trkpt>
      <trkpt lat="44.69705" lon="5.86334">
        <ele>1432</ele>
        <time>2016-07-21T11:20:34.234Z</time>
      </trkpt>
      <trkpt lat="44.697" lon="5.86336">
        <ele>1432</ele>
        <time>2016-07-21T11:20:41.234Z</time>
      </trkpt>
      <trkpt lat="44.69697" lon="5.86333">
        <ele>1432</ele>
        <time>2016-07-21T11:20:46.234Z</time>
      </trkpt>
      <trkpt lat="44.6968" lon="5.86332">
        <ele>1429</ele>
        <time>2016-07-21T11:21:08.234Z</time>
      </trkpt>
      <trkpt lat="44.69675" lon="5.86329">
        <ele>1429</ele>
        <time>2016-07-21T11:21:15.234Z</time>
      </trkpt>
      <trkpt lat="44.69652" lon="5.86335">
        <ele>1426</ele>
        <time>2016-07-21T11:21:58.234Z</time>
      </trkpt>
      <trkpt lat="44.69647" lon="5.86333">
        <ele>1426</ele>
        <time>2016-07-21T11:22:03.234Z</time>
      </trkpt>
      <trkpt lat="44.69643" lon="5.86336">
        <ele>1426</ele>
        <time>2016-07-21T11:22:07.234Z</time>
      </trkpt>
      <trkpt lat="44.69625" lon="5.86337">
        <ele>1422</ele>
        <time>2016-07-21T11:22:28.234Z</time>
      </trkpt>
      <trkpt lat="44.69614" lon="5.86333">
        <ele>1422</ele>
        <time>2016-07-21T11:22:44.234Z</time>
      </trkpt>
      <trkpt lat="44.69592" lon="5.86333">
        <ele>1420</ele>
        <time>2016-07-21T11:23:09.234Z</time>
      </trkpt>
      <trkpt lat="44.69568" lon="5.8633">
        <ele>1416</ele>
        <time>2016-07-21T11:23:39.234Z</time>
      </trkpt>
      <trkpt lat="44.69553" lon="5.86326">
        <ele>1416</ele>
        <time>2016-07-21T11:23:59.234Z</time>
      </trkpt>
      <trkpt lat="44.6955" lon="5.86327">
        <ele>1416</ele>
        <time>2016-07-21T11:24:03.234Z</time>
      </trkpt>
      <trkpt lat="44.69544" lon="5.86325">
        <ele>1416</ele>
        <time>2016-07-21T11:24:08.234Z</time>
      </trkpt>
      <trkpt lat="44.69519" lon="5.86331">
        <ele>1414</ele>
        <time>2016-07-21T11:24:36.234Z</time>
      </trkpt>
      <trkpt lat="44.69492" lon="5.86322">
        <ele>1412</ele>
        <time>2016-07-21T11:25:12.234Z</time>
      </trkpt>
      <trkpt lat="44.69469" lon="5.86327">
        <ele>1409</ele>
        <time>2016-07-21T11:25:40.234Z</time>
      </trkpt>
      <trkpt lat="44.69446" lon="5.86336">
        <ele>1403</ele>
        <time>2016-07-21T11:26:12.234Z</time>
      </trkpt>
      <trkpt lat="44.69423" lon="5.86342">
        <ele>1397</ele>
        <time>2016-07-21T11:26:45.234Z</time>
      </trkpt>
      <trkpt lat="44.694" lon="5.86357">
        <ele>1396</ele>
        <time>2016-07-21T11:27:20.234Z</time>
      </trkpt>
      <trkpt lat="44.69378" lon="5.86366">
        <ele>1396</ele>
        <time>2016-07-21T11:27:48.234Z</time>
      </trkpt>
      <trkpt lat="44.6934" lon="5.86363">
        <ele>1400</ele>
        <time>2016-07-21T11:28:22.234Z</time>
      </trkpt>
      <trkpt lat="44.69333" lon="5.86365">
        <ele>1400</ele>
        <time>2016-07-21T11:28:28.234Z</time>
      </trkpt>
      <trkpt lat="44.69315" lon="5.86386">
        <ele>1398</ele>
        <time>2016-07-21T11:28:50.234Z</time>
      </trkpt>
      <trkpt lat="44.69302" lon="5.86411">
        <ele>1394</ele>
        <time>2016-07-21T11:29:12.234Z</time>
      </trkpt>
      <trkpt lat="44.69296" lon="5.86413">
        <ele>1394</ele>
        <time>2016-07-21T11:29:16.234Z</time>
      </trkpt>
      <trkpt lat="44.69285" lon="5.86408">
        <ele>1393</ele>
        <time>2016-07-21T11:29:26.234Z</time>
      </trkpt>
      <trkpt lat="44.69274" lon="5.864">
        <ele>1395</ele>
        <time>2016-07-21T11:29:39.234Z</time>
      </trkpt>
      <trkpt lat="44.69258" lon="5.8638">
        <ele>1395</ele>
        <time>2016-07-21T11:29:57.234Z</time>
      </trkpt>
      <trkpt lat="44.6922" lon="5.86376">
        <ele>1396</ele>
        <time>2016-07-21T11:30:30.234Z</time>
      </trkpt>
      <trkpt lat="44.69215" lon="5.86377">
        <ele>1396</ele>
        <time>2016-07-21T11:30:36.234Z</time>
      </trkpt>
      <trkpt lat="44.69209" lon="5.86375">
        <ele>1396</ele>
        <time>2016-07-21T11:30:40.234Z</time>
      </trkpt>
      <trkpt lat="44.69201" lon="5.86378">
        <ele>1395</ele>
        <time>2016-07-21T11:30:48.234Z</time>
      </trkpt>
      <trkpt lat="44.69198" lon="5.86375">
        <ele>1398</ele>
        <time>2016-07-21T11:30:51.234Z</time>
      </trkpt>
      <trkpt lat="44.69197" lon="5.86378">
        <ele>1395</ele>
        <time>2016-07-21T11:30:55.234Z</time>
        <extensions>
          <visugpx:TrkExtension xmlns:visugpx="https://www.visugpx.com/editgpx/">
            <visugpx:node>1</visugpx:node>
            </visugpx:TrkExtension>
        </extensions>
      </trkpt>
    </trkseg>
  </trk>
</gpx>